Wetterdaten: Freitag, 17.04.2020
Datum Zeit Temp. Aussen Temp. o. S. Temp +5cm Feuchte Auss Luftdruck Regen Sonnenschein Regendauer Solar Windben Empfang
17.04.2020 00:00 13,1 C 12,8 C 11,1 C 65 % 1016,3 hPa 0,0 l/m 0 min 0 min 0 W/m 6,4 km/h (2 Bft) 100,00 %
17.04.2020 00:02 13,1 C 12,8 C 11,1 C 65 % 1016,3 hPa 0,0 l/m 0 min 0 min 0 W/m 3,2 km/h (1 Bft) 97,37 %
17.04.2020 00:04 13,1 C 12,8 C 11,1 C 65 % 1016,3 hPa 0,0 l/m 0 min 0 min 0 W/m 3,2 km/h (1 Bft) 100,00 %
17.04.2020 00:06 13,2 C 12,8 C 11,7 C 66 % 1016,3 hPa 0,0 l/m 0 min 0 min 0 W/m 9,7 km/h (2 Bft) 100,00 %
17.04.2020 00:08 13,2 C 12,8 C 11,7 C 66 % 1016,3 hPa 0,0 l/m 0 min 0 min 0 W/m 0,0 km/h (0 Bft) 100,00 %
17.04.2020 00:10 13,2 C 12,8 C 11,7 C 66 % 1016,3 hPa 0,0 l/m 0 min 0 min 0 W/m 6,4 km/h (2 Bft) 100,00 %
17.04.2020 00:12 13,3 C 12,8 C 11,7 C 66 % 1016,3 hPa 0,0 l/m 0 min 0 min 0 W/m 3,2 km/h (1 Bft) 100,00 %
17.04.2020 00:14 13,3 C 13,3 C 11,7 C 66 % 1016,3 hPa 0,0 l/m 0 min 0 min 0 W/m 6,4 km/h (2 Bft) 97,87 %
17.04.2020 00:16 13,3 C 13,3 C 11,7 C 66 % 1016,4 hPa 0,0 l/m 0 min 0 min 0 W/m 6,4 km/h (2 Bft) 100,00 %
17.04.2020 00:18 13,4 C 12,8 C 11,7 C 66 % 1016,3 hPa 0,0 l/m 0 min 0 min 0 W/m 3,2 km/h (1 Bft) 100,00 %
17.04.2020 00:20 13,4 C 13,3 C 11,7 C 66 % 1016,4 hPa 0,0 l/m 0 min 0 min 0 W/m 12,9 km/h (3 Bft) 100,00 %
17.04.2020 00:22 13,4 C 12,8 C 11,7 C 66 % 1016,4 hPa 0,0 l/m 0 min 0 min 0 W/m 0,0 km/h (0 Bft) 100,00 %
17.04.2020 00:24 13,5 C 12,8 C 11,7 C 66 % 1016,4 hPa 0,0 l/m 0 min 0 min 0 W/m 0,0 km/h (0 Bft) 100,00 %
17.04.2020 00:26 13,6 C 12,8 C 11,7 C 66 % 1016,4 hPa 0,0 l/m 0 min 0 min 0 W/m 3,2 km/h (1 Bft) 97,87 %
17.04.2020 00:28 13,6 C 12,8 C 11,7 C 65 % 1016,4 hPa 0,0 l/m 0 min 0 min 0 W/m 6,4 km/h (2 Bft) 97,87 %
17.04.2020 00:30 13,6 C 12,8 C 11,7 C 65 % 1016,4 hPa 0,0 l/m 0 min 0 min 0 W/m 0,0 km/h (0 Bft) 95,74 %
17.04.2020 00:32 13,7 C 12,8 C 11,7 C 65 % 1016,4 hPa 0,0 l/m 0 min 0 min 0 W/m 0,0 km/h (0 Bft) 97,83 %
17.04.2020 00:34 13,7 C 12,8 C 11,7 C 65 % 1016,4 hPa 0,0 l/m 0 min 0 min 0 W/m 0,0 km/h (0 Bft) 95,74 %
17.04.2020 00:36 13,7 C 12,8 C 11,7 C 65 % 1016,4 hPa 0,0 l/m 0 min 0 min 0 W/m 0,0 km/h (0 Bft) 95,74 %
17.04.2020 00:38 13,7 C 12,8 C 11,7 C 65 % 1016,4 hPa 0,0 l/m 0 min 0 min 0 W/m 0,0 km/h (0 Bft) 97,87 %
17.04.2020 00:40 13,7 C 12,8 C 11,7 C 65 % 1016,5 hPa 0,0 l/m 0 min 0 min 0 W/m 0,0 km/h (0 Bft) 95,74 %
17.04.2020 00:42 13,7 C 12,8 C 11,7 C 65 % 1016,4 hPa 0,0 l/m 0 min 0 min 0 W/m 0,0 km/h (0 Bft) 93,62 %
17.04.2020 00:44 13,7 C 12,8 C 11,7 C 65 % 1016,5 hPa 0,0 l/m 0 min 0 min 0 W/m 0,0 km/h (0 Bft) 93,48 %
17.04.2020 00:46 13,7 C 12,8 C 11,7 C 65 % 1016,5 hPa 0,0 l/m 0 min 0 min 0 W/m 3,2 km/h (1 Bft) 95,74 %
17.04.2020 00:48 13,7 C 12,8 C 11,7 C 65 % 1016,4 hPa 0,0 l/m 0 min 0 min 0 W/m 3,2 km/h (1 Bft) 91,49 %
17.04.2020 00:50 13,7 C 12,8 C 11,7 C 65 % 1016,5 hPa 0,0 l/m 0 min 0 min 0 W/m 0,0 km/h (0 Bft) 95,74 %
17.04.2020 00:52 13,7 C 12,8 C 11,7 C 64 % 1016,6 hPa 0,0 l/m 0 min 0 min 0 W/m 0,0 km/h (0 Bft) 93,62 %
17.04.2020 00:54 13,7 C 12,8 C 11,7 C 65 % 1016,6 hPa 0,0 l/m 0 min 0 min 0 W/m 6,4 km/h (2 Bft) 93,62 %
17.04.2020 00:56 13,7 C 12,8 C 11,7 C 65 % 1016,5 hPa 0,0 l/m 0 min 0 min 0 W/m 6,4 km/h (2 Bft) 95,65 %
17.04.2020 00:58 13,7 C 12,8 C 11,7 C 65 % 1016,5 hPa 0,0 l/m 0 min 0 min 0 W/m 3,2 km/h (1 Bft) 91,49 %
17.04.2020 01:00 13,7 C 12,8 C 11,7 C 65 % 1016,5 hPa 0,0 l/m 0 min 0 min 0 W/m 0,0 km/h (0 Bft) 95,74 %
17.04.2020 01:02 13,7 C 12,8 C 11,7 C 65 % 1016,5 hPa 0,0 l/m 0 min 0 min 0 W/m 0,0 km/h (0 Bft) 91,49 %
17.04.2020 01:04 13,7 C 12,8 C 11,7 C 64 % 1016,5 hPa 0,0 l/m 0 min 0 min 0 W/m 0,0 km/h (0 Bft) 93,62 %
17.04.2020 01:06 13,7 C 12,8 C 11,7 C 65 % 1016,6 hPa 0,0 l/m 0 min 0 min 0 W/m 6,4 km/h (2 Bft) 93,62 %
17.04.2020 01:08 13,7 C 12,8 C 11,7 C 64 % 1016,5 hPa 0,0 l/m 0 min 0 min 0 W/m 3,2 km/h (1 Bft) 95,65 %
17.04.2020 01:10 13,7 C 12,8 C 11,7 C 64 % 1016,5 hPa 0,0 l/m 0 min 0 min 0 W/m 6,4 km/h (2 Bft) 89,36 %
17.04.2020 01:12 13,7 C 12,8 C 11,7 C 65 % 1016,6 hPa 0,0 l/m 0 min 0 min 0 W/m 6,4 km/h (2 Bft) 93,62 %
17.04.2020 01:14 13,7 C 12,8 C 11,7 C 65 % 1016,6 hPa 0,0 l/m 0 min 0 min 0 W/m 3,2 km/h (1 Bft) 53,19 %
17.04.2020 01:16 13,7 C 12,8 C 11,7 C 65 % 1016,7 hPa 0,0 l/m 0 min 0 min 0 W/m 3,2 km/h (1 Bft) 91,49 %
17.04.2020 01:18 13,7 C 12,8 C 11,7 C 65 % 1016,6 hPa 0,0 l/m 0 min 0 min 0 W/m 3,2 km/h (1 Bft) 93,48 %
17.04.2020 01:20 13,7 C 12,2 C 11,7 C 65 % 1016,6 hPa 0,0 l/m 0 min 0 min 0 W/m 3,2 km/h (1 Bft) 95,74 %
17.04.2020 01:22 13,7 C 12,2 C 11,1 C 65 % 1016,6 hPa 0,0 l/m 0 min 0 min 0 W/m 0,0 km/h (0 Bft) 95,74 %
17.04.2020 01:24 13,7 C 12,2 C 11,7 C 65 % 1016,6 hPa 0,0 l/m 0 min 0 min 0 W/m 3,2 km/h (1 Bft) 97,87 %
17.04.2020 01:26 13,7 C 12,8 C 11,7 C 65 % 1016,6 hPa 0,0 l/m 0 min 0 min 0 W/m 6,4 km/h (2 Bft) 97,87 %
17.04.2020 01:28 13,7 C 12,2 C 11,7 C 65 % 1016,7 hPa 0,0 l/m 0 min 0 min 0 W/m 3,2 km/h (1 Bft) 95,74 %
17.04.2020 01:30 13,6 C 12,2 C 11,1 C 65 % 1016,7 hPa 0,0 l/m 0 min 0 min 0 W/m 3,2 km/h (1 Bft) 97,83 %
17.04.2020 01:32 13,6 C 12,2 C 11,1 C 65 % 1016,7 hPa 0,0 l/m 0 min 0 min 0 W/m 6,4 km/h (2 Bft) 95,74 %
17.04.2020 01:34 13,6 C 12,2 C 11,1 C 65 % 1016,6 hPa 0,0 l/m 0 min 0 min 0 W/m 9,7 km/h (2 Bft) 97,87 %
17.04.2020 01:36 13,6 C 12,2 C 11,1 C 65 % 1016,7 hPa 0,0 l/m 0 min 0 min 0 W/m 6,4 km/h (2 Bft) 95,74 %
17.04.2020 01:38 13,6 C 12,2 C 11,1 C 66 % 1016,7 hPa 0,0 l/m 0 min 0 min 0 W/m 3,2 km/h (1 Bft) 97,87 %
17.04.2020 01:40 13,5 C 12,2 C 11,1 C 66 % 1016,7 hPa 0,0 l/m 0 min 0 min 0 W/m 9,7 km/h (2 Bft) 93,62 %
17.04.2020 01:42 13,5 C 12,2 C 11,1 C 66 % 1016,7 hPa 0,0 l/m 0 min 0 min 0 W/m 3,2 km/h (1 Bft) 97,83 %
17.04.2020 01:44 13,4 C 12,2 C 11,1 C 66 % 1016,7 hPa 0,0 l/m 0 min 0 min 0 W/m 3,2 km/h (1 Bft) 100,00 %
17.04.2020 01:46 13,4 C 12,2 C 11,1 C 66 % 1016,7 hPa 0,0 l/m 0 min 0 min 0 W/m 9,7 km/h (2 Bft) 100,00 %
17.04.2020 01:48 13,4 C 12,2 C 11,1 C 66 % 1016,7 hPa 0,0 l/m 0 min 0 min 0 W/m 9,7 km/h (2 Bft) 97,87 %
17.04.2020 01:50 13,4 C 12,2 C 11,1 C 66 % 1016,7 hPa 0,0 l/m 0 min 0 min 0 W/m 9,7 km/h (2 Bft) 97,87 %
17.04.2020 01:52 13,3 C 12,2 C 11,1 C 66 % 1016,7 hPa 0,0 l/m 0 min 0 min 0 W/m 0,0 km/h (0 Bft) 100,00 %
17.04.2020 01:54 13,3 C 12,2 C 11,1 C 66 % 1016,7 hPa 0,0 l/m 0 min 0 min 0 W/m 3,2 km/h (1 Bft) 100,00 %
17.04.2020 01:56 13,3 C 11,7 C 11,1 C 67 % 1016,7 hPa 0,0 l/m 0 min 0 min 0 W/m 3,2 km/h (1 Bft) 100,00 %
17.04.2020 01:58 13,3 C 11,7 C 10,6 C 67 % 1016,7 hPa 0,0 l/m 0 min 0 min 0 W/m 0,0 km/h (0 Bft) 100,00 %
17.04.2020 02:00 13,2 C 11,7 C 10,6 C 67 % 1016,7 hPa 0,0 l/m 0 min 0 min 0 W/m 6,4 km/h (2 Bft) 100,00 %
17.04.2020 02:02 13,2 C 11,7 C 10,6 C 67 % 1016,7 hPa 0,0 l/m 0 min 0 min 0 W/m 6,4 km/h (2 Bft) 97,87 %
17.04.2020 02:04 13,2 C 11,7 C 10,6 C 67 % 1016,7 hPa 0,0 l/m 0 min 0 min 0 W/m 6,4 km/h (2 Bft) 100,00 %
17.04.2020 02:06 13,1 C 11,7 C 10,6 C 67 % 1016,7 hPa 0,0 l/m 0 min 0 min 0 W/m 3,2 km/h (1 Bft) 100,00 %
17.04.2020 02:08 13,1 C 11,7 C 10,6 C 68 % 1016,7 hPa 0,0 l/m 0 min 0 min 0 W/m 3,2 km/h (1 Bft) 100,00 %
17.04.2020 02:10 13,1 C 11,7 C 10,6 C 68 % 1016,7 hPa 0,0 l/m 0 min 0 min 0 W/m 12,9 km/h (3 Bft) 100,00 %
17.04.2020 02:12 13,0 C 11,7 C 10,6 C 68 % 1016,7 hPa 0,0 l/m 0 min 0 min 0 W/m 9,7 km/h (2 Bft) 100,00 %
17.04.2020 02:14 12,9 C 11,7 C 10,6 C 69 % 1016,7 hPa 0,0 l/m 0 min 0 min 0 W/m 9,7 km/h (2 Bft) 100,00 %
17.04.2020 02:16 12,9 C 11,7 C 10,6 C 69 % 1016,7 hPa 0,0 l/m 0 min 0 min 0 W/m 6,4 km/h (2 Bft) 100,00 %
17.04.2020 02:18 12,9 C 11,7 C 10,6 C 70 % 1016,7 hPa 0,0 l/m 0 min 0 min 0 W/m 9,7 km/h (2 Bft) 97,87 %
17.04.2020 02:20 12,8 C 11,7 C 10,6 C 70 % 1016,7 hPa 0,0 l/m 0 min 0 min 0 W/m 3,2 km/h (1 Bft) 100,00 %
17.04.2020 02:22 12,8 C 11,7 C 10,6 C 70 % 1016,7 hPa 0,0 l/m 0 min 0 min 0 W/m 3,2 km/h (1 Bft) 100,00 %
17.04.2020 02:24 12,8 C 11,1 C 10,6 C 70 % 1016,7 hPa 0,0 l/m 0 min 0 min 0 W/m 3,2 km/h (1 Bft) 97,87 %
17.04.2020 02:26 12,7 C 11,1 C 10,6 C 71 % 1016,7 hPa 0,0 l/m 0 min 0 min 0 W/m 3,2 km/h (1 Bft) 100,00 %
17.04.2020 02:28 12,7 C 11,1 C 10,6 C 71 % 1016,7 hPa 0,0 l/m 0 min 0 min 0 W/m 0,0 km/h (0 Bft) 100,00 %
17.04.2020 02:30 12,7 C 11,1 C 10,6 C 71 % 1016,7 hPa 0,0 l/m 0 min 0 min 0 W/m 3,2 km/h (1 Bft) 100,00 %
17.04.2020 02:32 12,7 C 11,1 C 10,6 C 71 % 1016,7 hPa 0,0 l/m 0 min 0 min 0 W/m 0,0 km/h (0 Bft) 97,87 %
17.04.2020 02:34 12,6 C 11,1 C 10,0 C 72 % 1016,7 hPa 0,0 l/m 0 min 0 min 0 W/m 0,0 km/h (0 Bft) 100,00 %
17.04.2020 02:36 12,6 C 11,1 C 10,0 C 71 % 1016,7 hPa 0,0 l/m 0 min 0 min 0 W/m 3,2 km/h (1 Bft) 100,00 %
17.04.2020 02:38 12,6 C 11,1 C 10,0 C 72 % 1016,7 hPa 0,0 l/m 0 min 0 min 0 W/m 0,0 km/h (0 Bft) 100,00 %
17.04.2020 02:40 12,5 C 11,1 C 10,0 C 72 % 1016,7 hPa 0,0 l/m 0 min 0 min 0 W/m 0,0 km/h (0 Bft) 100,00 %
17.04.2020 02:42 12,5 C 11,1 C 10,0 C 72 % 1016,7 hPa 0,0 l/m 0 min 0 min 0 W/m 0,0 km/h (0 Bft) 97,87 %
17.04.2020 02:44 12,4 C 10,6 C 10,0 C 72 % 1016,8 hPa 0,0 l/m 0 min 0 min 0 W/m 0,0 km/h (0 Bft) 100,00 %
17.04.2020 02:46 12,4 C 10,6 C 10,0 C 72 % 1016,8 hPa 0,0 l/m 0 min 0 min 0 W/m 0,0 km/h (0 Bft) 100,00 %
17.04.2020 02:48 12,4 C 10,6 C 10,0 C 72 % 1016,8 hPa 0,0 l/m 0 min 0 min 0 W/m 0,0 km/h (0 Bft) 100,00 %
17.04.2020 02:50 12,4 C 10,6 C 9,4 C 72 % 1016,8 hPa 0,0 l/m 0 min 0 min 0 W/m 0,0 km/h (0 Bft) 100,00 %
17.04.2020 02:52 12,3 C 10,0 C 9,4 C 72 % 1016,8 hPa 0,0 l/m 0 min 0 min 0 W/m 0,0 km/h (0 Bft) 100,00 %
17.04.2020 02:54 12,3 C 10,0 C 9,4 C 72 % 1016,8 hPa 0,0 l/m 0 min 0 min 0 W/m 0,0 km/h (0 Bft) 97,87 %
17.04.2020 02:56 12,3 C 10,0 C 9,4 C 72 % 1016,8 hPa 0,0 l/m 0 min 0 min 0 W/m 0,0 km/h (0 Bft) 97,87 %
17.04.2020 02:58 12,3 C 10,0 C 9,4 C 72 % 1016,7 hPa 0,0 l/m 0 min 0 min 0 W/m 0,0 km/h (0 Bft) 100,00 %
17.04.2020 03:00 12,2 C 10,0 C 8,9 C 72 % 1016,8 hPa 0,0 l/m 0 min 0 min 0 W/m 0,0 km/h (0 Bft) 100,00 %
17.04.2020 03:02 12,2 C 10,0 C 8,9 C 72 % 1016,8 hPa 0,0 l/m 0 min 0 min 0 W/m 0,0 km/h (0 Bft) 100,00 %
17.04.2020 03:04 12,1 C 10,0 C 8,9 C 73 % 1016,8 hPa 0,0 l/m 0 min 0 min 0 W/m 0,0 km/h (0 Bft) 100,00 %
17.04.2020 03:06 12,1 C 10,0 C 8,9 C 73 % 1016,9 hPa 0,0 l/m 0 min 0 min 0 W/m 0,0 km/h (0 Bft) 97,87 %
17.04.2020 03:08 12,1 C 10,0 C 8,9 C 73 % 1016,8 hPa 0,0 l/m 0 min 0 min 0 W/m 0,0 km/h (0 Bft) 100,00 %
17.04.2020 03:10 12,0 C 10,0 C 8,9 C 74 % 1016,7 hPa 0,0 l/m 0 min 0 min 0 W/m 3,2 km/h (1 Bft) 100,00 %
17.04.2020 03:12 11,9 C 10,0 C 8,9 C 74 % 1016,7 hPa 0,0 l/m 0 min 0 min 0 W/m 9,7 km/h (2 Bft) 97,87 %
17.04.2020 03:14 11,9 C 10,0 C 8,9 C 75 % 1016,8 hPa 0,0 l/m 0 min 0 min 0 W/m 0,0 km/h (0 Bft) 100,00 %
17.04.2020 03:16 11,8 C 10,0 C 8,9 C 75 % 1016,8 hPa 0,0 l/m 0 min 0 min 0 W/m 0,0 km/h (0 Bft) 97,87 %
17.04.2020 03:18 11,8 C 10,0 C 8,9 C 75 % 1016,7 hPa 0,0 l/m 0 min 0 min 0 W/m 3,2 km/h (1 Bft) 100,00 %
17.04.2020 03:20 11,7 C 10,0 C 8,9 C 76 % 1016,7 hPa 0,0 l/m 0 min 0 min 0 W/m 3,2 km/h (1 Bft) 97,87 %
17.04.2020 03:22 11,7 C 10,0 C 8,9 C 76 % 1016,7 hPa 0,0 l/m 0 min 0 min 0 W/m 0,0 km/h (0 Bft) 100,00 %
17.04.2020 03:24 11,7 C 10,0 C 8,9 C 76 % 1016,7 hPa 0,0 l/m 0 min 0 min 0 W/m 0,0 km/h (0 Bft) 97,87 %
17.04.2020 03:26 11,6 C 10,0 C 8,9 C 77 % 1016,7 hPa 0,0 l/m 0 min 0 min 0 W/m 6,4 km/h (2 Bft) 95,65 %
17.04.2020 03:28 11,6 C 9,4 C 8,9 C 77 % 1016,7 hPa 0,0 l/m 0 min 0 min 0 W/m 0,0 km/h (0 Bft) 95,74 %
17.04.2020 03:30 11,5 C 9,4 C 8,9 C 77 % 1016,6 hPa 0,0 l/m 0 min 0 min 0 W/m 0,0 km/h (0 Bft) 93,62 %
17.04.2020 03:32 11,4 C 9,4 C 8,9 C 78 % 1016,6 hPa 0,0 l/m 0 min 0 min 0 W/m 0,0 km/h (0 Bft) 95,74 %
17.04.2020 03:34 11,4 C 9,4 C 8,9 C 78 % 1016,6 hPa 0,0 l/m 0 min 0 min 0 W/m 0,0 km/h (0 Bft) 93,62 %
17.04.2020 03:36 11,3 C 9,4 C 8,9 C 78 % 1016,6 hPa 0,0 l/m 0 min 0 min 0 W/m 0,0 km/h (0 Bft) 95,74 %
17.04.2020 03:38 11,3 C 9,4 C 8,9 C 78 % 1016,7 hPa 0,0 l/m 0 min 0 min 0 W/m 0,0 km/h (0 Bft) 97,83 %
17.04.2020 03:40 11,3 C 9,4 C 8,9 C 79 % 1016,7 hPa 0,0 l/m 0 min 0 min 0 W/m 0,0 km/h (0 Bft) 95,74 %
17.04.2020 03:42 11,2 C 9,4 C 8,9 C 79 % 1016,6 hPa 0,0 l/m 0 min 0 min 0 W/m 0,0 km/h (0 Bft) 95,74 %
17.04.2020 03:44 11,2 C 9,4 C 8,9 C 79 % 1016,7 hPa 0,0 l/m 0 min 0 min 0 W/m 0,0 km/h (0 Bft) 95,74 %
17.04.2020 03:46 11,1 C 9,4 C 8,9 C 79 % 1016,7 hPa 0,0 l/m 0 min 0 min 0 W/m 0,0 km/h (0 Bft) 93,62 %
17.04.2020 03:48 11,1 C 9,4 C 8,9 C 79 % 1016,7 hPa 0,0 l/m 0 min 0 min 0 W/m 0,0 km/h (0 Bft) 95,74 %
17.04.2020 03:50 11,1 C 9,4 C 8,9 C 79 % 1016,7 hPa 0,0 l/m 0 min 0 min 0 W/m 0,0 km/h (0 Bft) 95,65 %
17.04.2020 03:52 11,0 C 8,9 C 8,9 C 79 % 1016,6 hPa 0,0 l/m 0 min 0 min 0 W/m 0,0 km/h (0 Bft) 93,62 %
17.04.2020 03:54 10,9 C 8,9 C 8,3 C 79 % 1016,6 hPa 0,0 l/m 0 min 0 min 0 W/m 0,0 km/h (0 Bft) 95,74 %
17.04.2020 03:56 10,9 C 8,9 C 8,3 C 80 % 1016,7 hPa 0,0 l/m 0 min 0 min 0 W/m 0,0 km/h (0 Bft) 93,62 %
17.04.2020 03:58 10,8 C 8,9 C 8,3 C 80 % 1016,7 hPa 0,0 l/m 0 min 0 min 0 W/m 0,0 km/h (0 Bft) 95,74 %
17.04.2020 04:00 10,8 C 8,9 C 8,3 C 80 % 1016,7 hPa 0,0 l/m 0 min 0 min 0 W/m 0,0 km/h (0 Bft) 95,74 %
17.04.2020 04:02 10,7 C 8,9 C 8,3 C 80 % 1016,7 hPa 0,0 l/m 0 min 0 min 0 W/m 0,0 km/h (0 Bft) 100,00 %
17.04.2020 04:04 10,7 C 8,9 C 8,3 C 80 % 1016,7 hPa 0,0 l/m 0 min 0 min 0 W/m 0,0 km/h (0 Bft) 100,00 %
17.04.2020 04:06 10,7 C 8,9 C 8,3 C 80 % 1016,7 hPa 0,0 l/m 0 min 0 min 0 W/m 0,0 km/h (0 Bft) 95,74 %
17.04.2020 04:08 10,6 C 8,9 C 8,3 C 80 % 1016,7 hPa 0,0 l/m 0 min 0 min 0 W/m 0,0 km/h (0 Bft) 97,87 %
17.04.2020 04:10 10,6 C 8,9 C 8,3 C 80 % 1016,7 hPa 0,0 l/m 0 min 0 min 0 W/m 0,0 km/h (0 Bft) 95,74 %
17.04.2020 04:12 10,5 C 8,9 C 8,3 C 81 % 1016,7 hPa 0,0 l/m 0 min 0 min 0 W/m 0,0 km/h (0 Bft) 97,83 %
17.04.2020 04:14 10,4 C 8,3 C 8,3 C 81 % 1016,7 hPa 0,0 l/m 0 min 0 min 0 W/m 0,0 km/h (0 Bft) 95,74 %
17.04.2020 04:16 10,4 C 8,9 C 8,3 C 81 % 1016,7 hPa 0,0 l/m 0 min 0 min 0 W/m 0,0 km/h (0 Bft) 95,74 %
17.04.2020 04:18 10,3 C 8,9 C 8,3 C 81 % 1016,8 hPa 0,0 l/m 0 min 0 min 0 W/m 0,0 km/h (0 Bft) 93,62 %
17.04.2020 04:20 10,3 C 8,3 C 8,3 C 81 % 1016,7 hPa 0,0 l/m 0 min 0 min 0 W/m 0,0 km/h (0 Bft) 95,74 %
17.04.2020 04:22 10,2 C 8,3 C 8,3 C 81 % 1016,8 hPa 0,0 l/m 0 min 0 min 0 W/m 0,0 km/h (0 Bft) 97,87 %
17.04.2020 04:24 10,2 C 8,3 C 8,3 C 81 % 1016,7 hPa 0,0 l/m 0 min 0 min 0 W/m 0,0 km/h (0 Bft) 95,65 %
17.04.2020 04:26 10,2 C 8,3 C 8,3 C 81 % 1016,8 hPa 0,0 l/m 0 min 0 min 0 W/m 0,0 km/h (0 Bft) 95,74 %
17.04.2020 04:28 10,1 C 8,3 C 8,3 C 81 % 1016,8 hPa 0,0 l/m 0 min 0 min 0 W/m 0,0 km/h (0 Bft) 95,74 %
17.04.2020 04:30 10,1 C 8,3 C 8,3 C 81 % 1016,8 hPa 0,0 l/m 0 min 0 min 0 W/m 0,0 km/h (0 Bft) 97,87 %
17.04.2020 04:32 10,1 C 8,3 C 7,8 C 81 % 1016,8 hPa 0,0 l/m 0 min 0 min 0 W/m 0,0 km/h (0 Bft) 95,74 %
17.04.2020 04:34 10,0 C 8,3 C 7,8 C 81 % 1016,9 hPa 0,0 l/m 0 min 0 min 0 W/m 0,0 km/h (0 Bft) 97,87 %
17.04.2020 04:36 9,9 C 8,3 C 7,8 C 81 % 1016,9 hPa 0,0 l/m 0 min 0 min 0 W/m 0,0 km/h (0 Bft) 93,48 %
17.04.2020 04:38 9,9 C 8,3 C 7,8 C 81 % 1016,9 hPa 0,0 l/m 0 min 0 min 0 W/m 0,0 km/h (0 Bft) 97,87 %
17.04.2020 04:40 9,9 C 8,3 C 7,8 C 82 % 1016,9 hPa 0,0 l/m 0 min 0 min 0 W/m 0,0 km/h (0 Bft) 97,87 %
17.04.2020 04:42 9,8 C 8,3 C 7,8 C 82 % 1016,9 hPa 0,0 l/m 0 min 0 min 0 W/m 0,0 km/h (0 Bft) 97,87 %
17.04.2020 04:44 9,8 C 8,3 C 7,8 C 82 % 1016,9 hPa 0,0 l/m 0 min 0 min 0 W/m 0,0 km/h (0 Bft) 97,87 %
17.04.2020 04:46 9,8 C 8,3 C 7,8 C 82 % 1016,9 hPa 0,0 l/m 0 min 0 min 0 W/m 0,0 km/h (0 Bft) 97,87 %
17.04.2020 04:48 9,7 C 7,8 C 7,8 C 82 % 1016,9 hPa 0,0 l/m 0 min 0 min 0 W/m 0,0 km/h (0 Bft) 97,83 %
17.04.2020 04:50 9,7 C 7,8 C 7,8 C 82 % 1016,9 hPa 0,0 l/m 0 min 0 min 0 W/m 0,0 km/h (0 Bft) 97,87 %
17.04.2020 04:52 9,6 C 7,8 C 7,8 C 82 % 1016,9 hPa 0,0 l/m 0 min 0 min 0 W/m 0,0 km/h (0 Bft) 97,87 %
17.04.2020 04:54 9,6 C 7,8 C 7,8 C 82 % 1016,9 hPa 0,0 l/m 0 min 0 min 0 W/m 0,0 km/h (0 Bft) 97,87 %
17.04.2020 04:56 9,6 C 7,8 C 7,8 C 82 % 1016,8 hPa 0,0 l/m 0 min 0 min 0 W/m 0,0 km/h (0 Bft) 97,87 %
17.04.2020 04:58 9,5 C 7,8 C 7,8 C 82 % 1016,8 hPa 0,0 l/m 0 min 0 min 0 W/m 0,0 km/h (0 Bft) 97,87 %
17.04.2020 05:00 9,5 C 7,8 C 7,8 C 82 % 1016,9 hPa 0,0 l/m 0 min 0 min 0 W/m 0,0 km/h (0 Bft) 95,65 %
17.04.2020 05:02 9,4 C 7,8 C 7,2 C 82 % 1017,0 hPa 0,0 l/m 0 min 0 min 0 W/m 0,0 km/h (0 Bft) 97,87 %
17.04.2020 05:04 9,4 C 7,8 C 7,2 C 82 % 1016,9 hPa 0,0 l/m 0 min 0 min 0 W/m 0,0 km/h (0 Bft) 97,87 %
17.04.2020 05:06 9,3 C 7,8 C 7,2 C 82 % 1016,9 hPa 0,0 l/m 0 min 0 min 0 W/m 0,0 km/h (0 Bft) 97,87 %
17.04.2020 05:08 9,3 C 7,8 C 7,2 C 82 % 1016,9 hPa 0,0 l/m 0 min 0 min 0 W/m 0,0 km/h (0 Bft) 97,87 %
17.04.2020 05:10 9,2 C 7,8 C 7,2 C 82 % 1017,0 hPa 0,0 l/m 0 min 0 min 0 W/m 0,0 km/h (0 Bft) 55,32 %
17.04.2020 05:12 9,2 C 7,8 C 7,2 C 81 % 1017,0 hPa 0,0 l/m 0 min 0 min 0 W/m 6,4 km/h (2 Bft) 97,83 %
17.04.2020 05:14 9,2 C 7,8 C 7,2 C 81 % 1017,1 hPa 0,0 l/m 0 min 0 min 0 W/m 6,4 km/h (2 Bft) 97,87 %
17.04.2020 05:16 9,2 C 7,8 C 7,2 C 81 % 1017,0 hPa 0,0 l/m 0 min 0 min 0 W/m 6,4 km/h (2 Bft) 97,87 %
17.04.2020 05:18 9,1 C 7,8 C 7,2 C 81 % 1017,0 hPa 0,0 l/m 0 min 0 min 0 W/m 0,0 km/h (0 Bft) 97,87 %
17.04.2020 05:20 9,1 C 7,8 C 7,2 C 81 % 1016,9 hPa 0,0 l/m 0 min 0 min 0 W/m 6,4 km/h (2 Bft) 97,87 %
17.04.2020 05:22 9,0 C 7,8 C 7,2 C 82 % 1016,9 hPa 0,0 l/m 0 min 0 min 0 W/m 6,4 km/h (2 Bft) 97,83 %
17.04.2020 05:24 9,0 C 7,8 C 7,2 C 82 % 1016,9 hPa 0,0 l/m 0 min 0 min 0 W/m 9,7 km/h (2 Bft) 93,62 %
17.04.2020 05:26 8,9 C 7,8 C 7,2 C 82 % 1016,9 hPa 0,0 l/m 0 min 0 min 0 W/m 3,2 km/h (1 Bft) 100,00 %
17.04.2020 05:28 8,9 C 7,8 C 7,2 C 82 % 1016,9 hPa 0,0 l/m 0 min 0 min 0 W/m 9,7 km/h (2 Bft) 100,00 %
17.04.2020 05:30 8,9 C 7,8 C 7,2 C 82 % 1016,9 hPa 0,0 l/m 0 min 0 min 0 W/m 3,2 km/h (1 Bft) 95,74 %
17.04.2020 05:32 8,8 C 7,8 C 7,2 C 82 % 1016,9 hPa 0,0 l/m 0 min 0 min 0 W/m 3,2 km/h (1 Bft) 100,00 %
17.04.2020 05:34 8,8 C 7,8 C 7,2 C 82 % 1016,9 hPa 0,0 l/m 0 min 0 min 0 W/m 3,2 km/h (1 Bft) 97,83 %
17.04.2020 05:36 8,8 C 7,8 C 7,2 C 82 % 1016,9 hPa 0,0 l/m 0 min 0 min 0 W/m 9,7 km/h (2 Bft) 97,87 %
17.04.2020 05:38 8,8 C 7,2 C 7,2 C 82 % 1017,0 hPa 0,0 l/m 0 min 0 min 0 W/m 0,0 km/h (0 Bft) 97,87 %
17.04.2020 05:40 8,7 C 7,2 C 7,2 C 82 % 1016,9 hPa 0,0 l/m 0 min 0 min 0 W/m 0,0 km/h (0 Bft) 95,74 %
17.04.2020 05:42 8,7 C 7,2 C 7,2 C 82 % 1016,9 hPa 0,0 l/m 0 min 0 min 0 W/m 0,0 km/h (0 Bft) 97,87 %
17.04.2020 05:44 8,7 C 7,2 C 7,2 C 82 % 1016,9 hPa 0,0 l/m 0 min 0 min 0 W/m 3,2 km/h (1 Bft) 97,87 %
17.04.2020 05:46 8,7 C 7,2 C 7,2 C 82 % 1017,0 hPa 0,0 l/m 0 min 0 min 0 W/m 3,2 km/h (1 Bft) 97,83 %
17.04.2020 05:48 8,6 C 7,2 C 7,2 C 82 % 1016,9 hPa 0,0 l/m 0 min 0 min 0 W/m 6,4 km/h (2 Bft) 97,87 %
17.04.2020 05:50 8,6 C 7,2 C 7,2 C 82 % 1017,0 hPa 0,0 l/m 0 min 0 min 0 W/m 3,2 km/h (1 Bft) 97,87 %
17.04.2020 05:52 8,6 C 7,2 C 6,7 C 82 % 1017,0 hPa 0,0 l/m 0 min 0 min 0 W/m 6,4 km/h (2 Bft) 97,87 %
17.04.2020 05:54 8,6 C 7,2 C 6,7 C 82 % 1017,1 hPa 0,0 l/m 0 min 0 min 0 W/m 3,2 km/h (1 Bft) 97,87 %
17.04.2020 05:56 8,6 C 7,2 C 6,7 C 82 % 1017,1 hPa 0,0 l/m 0 min 0 min 0 W/m 6,4 km/h (2 Bft) 97,87 %
17.04.2020 05:58 8,5 C 7,2 C 6,7 C 82 % 1017,1 hPa 0,0 l/m 0 min 0 min 0 W/m 6,4 km/h (2 Bft) 97,83 %
17.04.2020 06:00 8,4 C 7,2 C 6,7 C 82 % 1017,1 hPa 0,0 l/m 0 min 0 min 0 W/m 3,2 km/h (1 Bft) 97,87 %
17.04.2020 06:02 8,4 C 7,2 C 6,7 C 82 % 1017,0 hPa 0,0 l/m 0 min 0 min 0 W/m 3,2 km/h (1 Bft) 97,87 %
17.04.2020 06:04 8,4 C 7,2 C 6,7 C 82 % 1016,9 hPa 0,0 l/m 0 min 0 min 0 W/m 9,7 km/h (2 Bft) 97,87 %
17.04.2020 06:06 8,4 C 7,2 C 6,7 C 82 % 1016,9 hPa 0,0 l/m 0 min 0 min 0 W/m 3,2 km/h (1 Bft) 95,74 %
17.04.2020 06:08 8,4 C 7,2 C 6,7 C 82 % 1016,9 hPa 0,0 l/m 0 min 0 min 0 W/m 3,2 km/h (1 Bft) 97,87 %
17.04.2020 06:10 8,3 C 7,2 C 6,7 C 82 % 1016,9 hPa 0,0 l/m 0 min 0 min 0 W/m 3,2 km/h (1 Bft) 97,83 %
17.04.2020 06:12 8,3 C 7,2 C 6,7 C 82 % 1017,0 hPa 0,0 l/m 0 min 0 min 0 W/m 0,0 km/h (0 Bft) 100,00 %
17.04.2020 06:14 8,3 C 7,2 C 6,7 C 83 % 1017,0 hPa 0,0 l/m 0 min 0 min 0 W/m 3,2 km/h (1 Bft) 100,00 %
17.04.2020 06:16 8,3 C 7,2 C 6,7 C 83 % 1017,0 hPa 0,0 l/m 0 min 0 min 0 W/m 9,7 km/h (2 Bft) 100,00 %
17.04.2020 06:18 8,3 C 7,2 C 6,7 C 83 % 1017,0 hPa 0,0 l/m 0 min 0 min 0 W/m 9,7 km/h (2 Bft) 100,00 %
17.04.2020 06:20 8,2 C 7,2 C 6,7 C 83 % 1017,0 hPa 0,0 l/m 0 min 0 min 0 W/m 3,2 km/h (1 Bft) 95,74 %
17.04.2020 06:22 8,2 C 7,2 C 6,7 C 83 % 1017,1 hPa 0,0 l/m 0 min 0 min 0 W/m 3,2 km/h (1 Bft) 100,00 %
17.04.2020 06:24 8,2 C 7,2 C 6,7 C 83 % 1017,1 hPa 0,0 l/m 0 min 0 min 0 W/m 0,0 km/h (0 Bft) 100,00 %
17.04.2020 06:26 8,2 C 7,2 C 6,7 C 83 % 1017,1 hPa 0,0 l/m 0 min 0 min 0 W/m 6,4 km/h (2 Bft) 97,87 %
17.04.2020 06:28 8,2 C 7,2 C 6,7 C 83 % 1017,1 hPa 0,0 l/m 0 min 0 min 0 W/m 0,0 km/h (0 Bft) 100,00 %
17.04.2020 06:30 8,1 C 7,2 C 6,7 C 83 % 1017,1 hPa 0,0 l/m 0 min 0 min 0 W/m 0,0 km/h (0 Bft) 97,87 %
17.04.2020 06:32 8,1 C 6,7 C 6,7 C 83 % 1017,1 hPa 0,0 l/m 0 min 0 min 0 W/m 3,2 km/h (1 Bft) 97,83 %
17.04.2020 06:34 8,1 C 6,7 C 6,7 C 83 % 1017,1 hPa 0,0 l/m 0 min 0 min 0 W/m 3,2 km/h (1 Bft) 93,62 %
17.04.2020 06:36 8,1 C 6,7 C 6,7 C 83 % 1017,1 hPa 0,0 l/m 0 min 0 min 3 W/m 0,0 km/h (0 Bft) 47,06 %
17.04.2020 06:38 8,1 C 6,7 C 6,7 C 83 % 1017,2 hPa 0,0 l/m 0 min 0 min 5 W/m 3,2 km/h (1 Bft) 97,87 %
17.04.2020 06:40 8,0 C 6,7 C 6,7 C 83 % 1017,2 hPa 0,0 l/m 0 min 0 min 7 W/m 3,2 km/h (1 Bft) 97,87 %
17.04.2020 06:42 8,0 C 6,7 C 6,7 C 83 % 1017,2 hPa 0,0 l/m 0 min 0 min 8 W/m 0,0 km/h (0 Bft) 97,87 %
17.04.2020 06:44 8,0 C 6,7 C 6,7 C 83 % 1017,3 hPa 0,0 l/m 0 min 0 min 10 W/m 3,2 km/h (1 Bft) 97,83 %
17.04.2020 06:46 7,9 C 6,7 C 6,7 C 84 % 1017,3 hPa 0,0 l/m 0 min 0 min 11 W/m 6,4 km/h (2 Bft) 95,74 %
17.04.2020 06:48 7,9 C 6,7 C 6,7 C 84 % 1017,3 hPa 0,0 l/m 0 min 0 min 12 W/m 3,2 km/h (1 Bft) 97,87 %
17.04.2020 06:50 7,9 C 6,7 C 6,7 C 84 % 1017,4 hPa 0,0 l/m 0 min 0 min 15 W/m 6,4 km/h (2 Bft) 97,87 %
17.04.2020 06:52 7,9 C 7,2 C 6,7 C 83 % 1017,4 hPa 0,0 l/m 0 min 0 min 17 W/m 6,4 km/h (2 Bft) 97,87 %
17.04.2020 06:54 7,9 C 7,2 C 6,7 C 83 % 1017,4 hPa 0,0 l/m 0 min 0 min 19 W/m 3,2 km/h (1 Bft) 97,87 %
17.04.2020 06:56 7,9 C 7,2 C 6,7 C 84 % 1017,4 hPa 0,0 l/m 0 min 0 min 20 W/m 0,0 km/h (0 Bft) 97,83 %
17.04.2020 06:58 7,9 C 7,2 C 6,7 C 84 % 1017,4 hPa 0,0 l/m 2 min 0 min 24 W/m 3,2 km/h (1 Bft) 93,62 %
17.04.2020 07:00 7,8 C 7,2 C 6,7 C 84 % 1017,3 hPa 0,0 l/m 0 min 0 min 26 W/m 0,0 km/h (0 Bft) 95,74 %
17.04.2020 07:02 7,8 C 7,2 C 6,7 C 84 % 1017,3 hPa 0,0 l/m 0 min 0 min 27 W/m 3,2 km/h (1 Bft) 97,87 %
17.04.2020 07:04 7,8 C 7,2 C 6,7 C 84 % 1017,3 hPa 0,0 l/m 0 min 0 min 30 W/m 6,4 km/h (2 Bft) 93,62 %
17.04.2020 07:06 7,8 C 7,2 C 6,7 C 84 % 1017,3 hPa 0,0 l/m 0 min 0 min 32 W/m 3,2 km/h (1 Bft) 97,83 %
17.04.2020 07:08 7,8 C 7,2 C 6,7 C 84 % 1017,3 hPa 0,0 l/m 0 min 0 min 34 W/m 3,2 km/h (1 Bft) 97,87 %
17.04.2020 07:10 7,8 C 7,2 C 6,7 C 84 % 1017,3 hPa 0,0 l/m 0 min 0 min 35 W/m 3,2 km/h (1 Bft) 97,87 %
17.04.2020 07:12 7,8 C 7,2 C 6,7 C 84 % 1017,4 hPa 0,0 l/m 0 min 0 min 37 W/m 3,2 km/h (1 Bft) 97,87 %
17.04.2020 07:14 7,8 C 7,2 C 7,2 C 84 % 1017,3 hPa 0,0 l/m 0 min 0 min 39 W/m 0,0 km/h (0 Bft) 97,87 %
17.04.2020 07:16 7,8 C 7,2 C 7,2 C 84 % 1017,3 hPa 0,0 l/m 0 min 0 min 40 W/m 16,1 km/h (3 Bft) 97,87 %
17.04.2020 07:18 7,8 C 7,2 C 7,2 C 84 % 1017,4 hPa 0,0 l/m 0 min 0 min 40 W/m 6,4 km/h (2 Bft) 97,87 %
17.04.2020 07:20 7,8 C 7,2 C 7,2 C 84 % 1017,3 hPa 0,0 l/m 0 min 0 min 42 W/m 0,0 km/h (0 Bft) 95,65 %
17.04.2020 07:22 7,8 C 7,8 C 7,2 C 84 % 1017,4 hPa 0,0 l/m 0 min 0 min 44 W/m 0,0 km/h (0 Bft) 100,00 %
17.04.2020 07:24 7,8 C 7,8 C 7,2 C 84 % 1017,4 hPa 0,0 l/m 0 min 0 min 45 W/m 3,2 km/h (1 Bft) 100,00 %
17.04.2020 07:26 7,9 C 7,8 C 7,2 C 84 % 1017,4 hPa 0,0 l/m 0 min 0 min 46 W/m 9,7 km/h (2 Bft) 97,87 %
17.04.2020 07:28 7,9 C 7,8 C 7,2 C 84 % 1017,5 hPa 0,0 l/m 0 min 0 min 47 W/m 6,4 km/h (2 Bft) 100,00 %
17.04.2020 07:30 7,9 C 7,8 C 7,2 C 84 % 1017,5 hPa 0,0 l/m 0 min 0 min 47 W/m 3,2 km/h (1 Bft) 100,00 %
17.04.2020 07:32 7,9 C 7,8 C 7,2 C 84 % 1017,5 hPa 0,0 l/m 0 min 0 min 47 W/m 3,2 km/h (1 Bft) 97,87 %
17.04.2020 07:34 7,9 C 7,8 C 7,2 C 84 % 1017,6 hPa 0,0 l/m 0 min 0 min 48 W/m 3,2 km/h (1 Bft) 100,00 %
17.04.2020 07:36 7,9 C 7,8 C 7,2 C 84 % 1017,6 hPa 0,0 l/m 0 min 0 min 49 W/m 3,2 km/h (1 Bft) 97,87 %
17.04.2020 07:38 7,9 C 7,8 C 7,2 C 84 % 1017,6 hPa 0,0 l/m 0 min 0 min 49 W/m 3,2 km/h (1 Bft) 100,00 %
17.04.2020 07:40 8,0 C 7,8 C 7,2 C 84 % 1017,7 hPa 0,0 l/m 0 min 0 min 49 W/m 0,0 km/h (0 Bft) 100,00 %
17.04.2020 07:42 8,0 C 7,8 C 7,2 C 84 % 1017,7 hPa 0,0 l/m 0 min 0 min 49 W/m 3,2 km/h (1 Bft) 97,83 %
17.04.2020 07:44 8,0 C 7,8 C 7,2 C 84 % 1017,7 hPa 0,0 l/m 0 min 0 min 49 W/m 6,4 km/h (2 Bft) 95,74 %
17.04.2020 07:46 8,1 C 7,8 C 7,2 C 84 % 1017,7 hPa 0,0 l/m 0 min 0 min 49 W/m 3,2 km/h (1 Bft) 97,87 %
17.04.2020 07:48 8,1 C 7,8 C 7,2 C 84 % 1017,7 hPa 0,0 l/m 0 min 0 min 49 W/m 3,2 km/h (1 Bft) 97,87 %
17.04.2020 07:50 8,1 C 7,8 C 7,2 C 84 % 1017,8 hPa 0,0 l/m 0 min 0 min 49 W/m 6,4 km/h (2 Bft) 97,87 %
17.04.2020 07:52 8,1 C 7,8 C 7,2 C 84 % 1017,7 hPa 0,0 l/m 0 min 0 min 49 W/m 3,2 km/h (1 Bft) 97,87 %
17.04.2020 07:54 8,1 C 7,8 C 7,8 C 84 % 1017,8 hPa 0,0 l/m 0 min 0 min 49 W/m 3,2 km/h (1 Bft) 100,00 %
17.04.2020 07:56 8,1 C 7,8 C 7,8 C 84 % 1017,8 hPa 0,0 l/m 0 min 0 min 50 W/m 6,4 km/h (2 Bft) 97,87 %
17.04.2020 07:58 8,2 C 7,8 C 7,8 C 84 % 1017,7 hPa 0,0 l/m 0 min 0 min 51 W/m 0,0 km/h (0 Bft) 97,87 %
17.04.2020 08:00 8,2 C 8,3 C 7,8 C 84 % 1017,7 hPa 0,0 l/m 0 min 0 min 51 W/m 3,2 km/h (1 Bft) 97,87 %
17.04.2020 08:02 8,2 C 8,3 C 7,8 C 84 % 1017,7 hPa 0,0 l/m 0 min 0 min 52 W/m 3,2 km/h (1 Bft) 97,87 %
17.04.2020 08:04 8,2 C 8,3 C 7,8 C 84 % 1017,7 hPa 0,0 l/m 0 min 0 min 53 W/m 3,2 km/h (1 Bft) 96,15 %
17.04.2020 08:06 8,2 C 8,3 C 7,8 C 84 % 1017,7 hPa 0,0 l/m 0 min 0 min 53 W/m 3,2 km/h (1 Bft) 97,87 %
17.04.2020 08:08 8,2 C 8,3 C 7,8 C 84 % 1017,8 hPa 0,0 l/m 0 min 0 min 54 W/m 9,7 km/h (2 Bft) 100,00 %
17.04.2020 08:10 8,3 C 8,3 C 7,8 C 84 % 1017,7 hPa 0,0 l/m 0 min 0 min 54 W/m 3,2 km/h (1 Bft) 97,87 %
17.04.2020 08:12 8,3 C 8,3 C 7,8 C 84 % 1017,7 hPa 0,0 l/m 0 min 0 min 56 W/m 3,2 km/h (1 Bft) 95,65 %
17.04.2020 08:14 8,3 C 8,3 C 7,8 C 83 % 1017,7 hPa 0,0 l/m 0 min 0 min 57 W/m 12,9 km/h (3 Bft) 95,74 %
17.04.2020 08:16 8,3 C 8,3 C 7,8 C 83 % 1017,7 hPa 0,0 l/m 0 min 0 min 58 W/m 3,2 km/h (1 Bft) 95,74 %
17.04.2020 08:18 8,3 C 8,3 C 7,8 C 83 % 1017,7 hPa 0,0 l/m 0 min 0 min 59 W/m 3,2 km/h (1 Bft) 95,74 %
17.04.2020 08:20 8,3 C 8,3 C 7,8 C 83 % 1017,7 hPa 0,0 l/m 0 min 0 min 60 W/m 3,2 km/h (1 Bft) 95,74 %
17.04.2020 08:22 8,3 C 8,3 C 7,8 C 83 % 1017,7 hPa 0,0 l/m 0 min 0 min 61 W/m 6,4 km/h (2 Bft) 93,48 %
17.04.2020 08:24 8,4 C 8,3 C 7,8 C 83 % 1017,7 hPa 0,0 l/m 0 min 0 min 62 W/m 6,4 km/h (2 Bft) 97,87 %
17.04.2020 08:26 8,4 C 8,3 C 7,8 C 83 % 1017,6 hPa 0,0 l/m 0 min 0 min 63 W/m 6,4 km/h (2 Bft) 95,74 %
17.04.2020 08:28 8,4 C 8,9 C 7,8 C 82 % 1017,6 hPa 0,0 l/m 0 min 0 min 64 W/m 6,4 km/h (2 Bft) 97,87 %
17.04.2020 08:30 8,5 C 8,9 C 7,8 C 82 % 1017,6 hPa 0,0 l/m 0 min 0 min 66 W/m 9,7 km/h (2 Bft) 95,74 %
17.04.2020 08:32 8,5 C 8,9 C 8,3 C 82 % 1017,6 hPa 0,0 l/m 0 min 0 min 67 W/m 9,7 km/h (2 Bft) 97,87 %
17.04.2020 08:34 8,6 C 8,9 C 8,3 C 82 % 1017,6 hPa 0,0 l/m 0 min 0 min 68 W/m 9,7 km/h (2 Bft) 97,83 %
17.04.2020 08:36 8,6 C 8,9 C 8,3 C 82 % 1017,6 hPa 0,0 l/m 0 min 0 min 69 W/m 9,7 km/h (2 Bft) 95,74 %
17.04.2020 08:38 8,6 C 8,9 C 8,3 C 82 % 1017,6 hPa 0,0 l/m 0 min 0 min 70 W/m 3,2 km/h (1 Bft) 97,87 %
17.04.2020 08:40 8,6 C 8,9 C 8,3 C 82 % 1017,6 hPa 0,0 l/m 0 min 0 min 71 W/m 3,2 km/h (1 Bft) 97,87 %
17.04.2020 08:42 8,7 C 8,9 C 8,3 C 82 % 1017,6 hPa 0,0 l/m 0 min 0 min 73 W/m 9,7 km/h (2 Bft) 95,74 %
17.04.2020 08:44 8,7 C 8,9 C 8,3 C 82 % 1017,7 hPa 0,0 l/m 0 min 0 min 75 W/m 3,2 km/h (1 Bft) 97,87 %
17.04.2020 08:46 8,7 C 9,4 C 8,3 C 82 % 1017,6 hPa 0,0 l/m 0 min 0 min 91 W/m 9,7 km/h (2 Bft) 97,83 %
17.04.2020 08:48 8,8 C 9,4 C 8,3 C 82 % 1017,7 hPa 0,0 l/m 2 min 0 min 190 W/m 6,4 km/h (2 Bft) 97,87 %
17.04.2020 08:50 8,8 C 9,4 C 8,9 C 82 % 1017,8 hPa 0,0 l/m 2 min 0 min 248 W/m 9,7 km/h (2 Bft) 95,74 %
17.04.2020 08:52 8,8 C 10,6 C 8,9 C 81 % 1017,8 hPa 0,0 l/m 2 min 0 min 255 W/m 12,9 km/h (3 Bft) 97,87 %
17.04.2020 08:54 8,9 C 11,7 C 8,9 C 81 % 1017,8 hPa 0,0 l/m 2 min 0 min 260 W/m 6,4 km/h (2 Bft) 97,87 %
17.04.2020 08:56 8,9 C 12,8 C 8,9 C 81 % 1017,8 hPa 0,0 l/m 2 min 0 min 264 W/m 3,2 km/h (1 Bft) 97,87 %
17.04.2020 08:58 9,1 C 13,3 C 8,9 C 81 % 1017,8 hPa 0,0 l/m 2 min 0 min 268 W/m 6,4 km/h (2 Bft) 97,83 %
17.04.2020 09:00 9,1 C 12,8 C 8,9 C 81 % 1017,8 hPa 0,0 l/m 2 min 0 min 259 W/m 6,4 km/h (2 Bft) 97,87 %
17.04.2020 09:02 9,2 C 12,8 C 9,4 C 81 % 1017,8 hPa 0,0 l/m 2 min 0 min 268 W/m 6,4 km/h (2 Bft) 97,87 %
17.04.2020 09:04 9,3 C 13,3 C 9,4 C 81 % 1017,8 hPa 0,0 l/m 2 min 0 min 244 W/m 9,7 km/h (2 Bft) 97,87 %
17.04.2020 09:06 9,4 C 13,3 C 9,4 C 80 % 1017,9 hPa 0,0 l/m 2 min 0 min 273 W/m 6,4 km/h (2 Bft) 97,87 %
17.04.2020 09:08 9,6 C 13,9 C 9,4 C 80 % 1017,8 hPa 0,0 l/m 2 min 0 min 297 W/m 6,4 km/h (2 Bft) 97,83 %
17.04.2020 09:10 9,7 C 13,9 C 9,4 C 80 % 1017,8 hPa 0,0 l/m 2 min 0 min 303 W/m 3,2 km/h (1 Bft) 100,00 %
17.04.2020 09:12 9,8 C 14,4 C 10,0 C 80 % 1017,8 hPa 0,0 l/m 2 min 0 min 305 W/m 9,7 km/h (2 Bft) 100,00 %
17.04.2020 09:14 9,9 C 14,4 C 10,0 C 80 % 1017,8 hPa 0,0 l/m 2 min 0 min 309 W/m 9,7 km/h (2 Bft) 97,87 %
17.04.2020 09:16 10,0 C 14,4 C 10,0 C 79 % 1017,9 hPa 0,0 l/m 2 min 0 min 318 W/m 9,7 km/h (2 Bft) 97,87 %
17.04.2020 09:18 10,1 C 14,4 C 10,0 C 79 % 1017,8 hPa 0,0 l/m 2 min 0 min 325 W/m 6,4 km/h (2 Bft) 93,62 %
17.04.2020 09:20 10,2 C 14,4 C 10,6 C 78 % 1017,8 hPa 0,0 l/m 2 min 0 min 330 W/m 9,7 km/h (2 Bft) 95,65 %
17.04.2020 09:22 10,3 C 14,4 C 10,6 C 78 % 1017,9 hPa 0,0 l/m 2 min 0 min 335 W/m 9,7 km/h (2 Bft) 97,87 %
17.04.2020 09:24 10,5 C 14,4 C 11,7 C 77 % 1017,9 hPa 0,0 l/m 2 min 0 min 338 W/m 6,4 km/h (2 Bft) 97,87 %
17.04.2020 09:26 10,6 C 15,0 C 13,9 C 77 % 1017,8 hPa 0,0 l/m 2 min 0 min 345 W/m 3,2 km/h (1 Bft) 97,87 %
17.04.2020 09:28 10,7 C 15,6 C 15,0 C 77 % 1017,8 hPa 0,0 l/m 2 min 0 min 351 W/m 3,2 km/h (1 Bft) 97,87 %
17.04.2020 09:30 10,9 C 16,1 C 15,6 C 78 % 1017,8 hPa 0,0 l/m 2 min 0 min 358 W/m 3,2 km/h (1 Bft) 97,87 %
17.04.2020 09:32 11,0 C 15,6 C 16,1 C 77 % 1017,7 hPa 0,0 l/m 2 min 0 min 364 W/m 12,9 km/h (3 Bft) 97,83 %
17.04.2020 09:34 11,2 C 16,1 C 16,7 C 77 % 1017,8 hPa 0,0 l/m 2 min 0 min 371 W/m 6,4 km/h (2 Bft) 97,87 %
17.04.2020 09:36 11,3 C 16,1 C 16,7 C 76 % 1017,7 hPa 0,0 l/m 2 min 0 min 376 W/m 9,7 km/h (2 Bft) 97,87 %
17.04.2020 09:38 11,4 C 16,1 C 16,7 C 75 % 1017,7 hPa 0,0 l/m 2 min 0 min 382 W/m 9,7 km/h (2 Bft) 95,74 %
17.04.2020 09:40 11,6 C 16,7 C 17,2 C 75 % 1017,8 hPa 0,0 l/m 2 min 0 min 388 W/m 12,9 km/h (3 Bft) 97,87 %
17.04.2020 09:42 11,6 C 16,1 C 17,2 C 74 % 1017,7 hPa 0,0 l/m 2 min 0 min 395 W/m 12,9 km/h (3 Bft) 97,87 %
17.04.2020 09:44 11,7 C 15,6 C 17,2 C 73 % 1017,8 hPa 0,0 l/m 2 min 0 min 401 W/m 19,3 km/h (3 Bft) 95,65 %
17.04.2020 09:46 11,8 C 16,1 C 17,2 C 73 % 1017,8 hPa 0,0 l/m 2 min 0 min 407 W/m 6,4 km/h (2 Bft) 100,00 %
17.04.2020 09:48 11,9 C 16,7 C 17,2 C 73 % 1017,7 hPa 0,0 l/m 2 min 0 min 413 W/m 6,4 km/h (2 Bft) 100,00 %
17.04.2020 09:50 12,1 C 17,2 C 18,3 C 73 % 1017,8 hPa 0,0 l/m 2 min 0 min 417 W/m 9,7 km/h (2 Bft) 97,87 %
17.04.2020 09:52 12,2 C 17,2 C 18,3 C 73 % 1017,7 hPa 0,0 l/m 2 min 0 min 423 W/m 9,7 km/h (2 Bft) 97,87 %
17.04.2020 09:54 12,3 C 17,8 C 18,3 C 72 % 1017,8 hPa 0,0 l/m 2 min 0 min 430 W/m 6,4 km/h (2 Bft) 100,00 %
17.04.2020 09:56 12,4 C 18,3 C 18,9 C 72 % 1017,8 hPa 0,0 l/m 2 min 0 min 436 W/m 6,4 km/h (2 Bft) 100,00 %
17.04.2020 09:58 12,6 C 17,8 C 18,9 C 72 % 1017,7 hPa 0,0 l/m 2 min 0 min 440 W/m 9,7 km/h (2 Bft) 97,87 %
17.04.2020 10:00 12,7 C 17,8 C 18,9 C 72 % 1017,7 hPa 0,0 l/m 2 min 0 min 446 W/m 6,4 km/h (2 Bft) 100,00 %
17.04.2020 10:02 12,8 C 18,3 C 18,9 C 71 % 1017,7 hPa 0,0 l/m 2 min 0 min 452 W/m 6,4 km/h (2 Bft) 97,87 %
17.04.2020 10:04 12,9 C 18,3 C 18,9 C 71 % 1017,7 hPa 0,0 l/m 2 min 0 min 457 W/m 12,9 km/h (3 Bft) 100,00 %
17.04.2020 10:06 13,1 C 18,3 C 19,4 C 71 % 1017,7 hPa 0,0 l/m 2 min 0 min 463 W/m 3,2 km/h (1 Bft) 100,00 %
17.04.2020 10:08 13,2 C 18,3 C 19,4 C 71 % 1017,7 hPa 0,0 l/m 2 min 0 min 468 W/m 9,7 km/h (2 Bft) 100,00 %
17.04.2020 10:10 13,3 C 18,3 C 20,0 C 70 % 1017,6 hPa 0,0 l/m 2 min 0 min 476 W/m 9,7 km/h (2 Bft) 100,00 %
17.04.2020 10:12 13,4 C 17,8 C 19,4 C 69 % 1017,7 hPa 0,0 l/m 2 min 0 min 483 W/m 6,4 km/h (2 Bft) 100,00 %
17.04.2020 10:14 13,5 C 18,3 C 19,4 C 69 % 1017,6 hPa 0,0 l/m 2 min 0 min 489 W/m 3,2 km/h (1 Bft) 100,00 %
17.04.2020 10:16 13,6 C 18,3 C 18,9 C 69 % 1017,6 hPa 0,0 l/m 2 min 0 min 492 W/m 9,7 km/h (2 Bft) 100,00 %
17.04.2020 10:18 13,7 C 18,9 C 19,4 C 69 % 1017,7 hPa 0,0 l/m 2 min 0 min 496 W/m 6,4 km/h (2 Bft) 100,00 %
17.04.2020 10:20 13,8 C 18,9 C 19,4 C 69 % 1017,7 hPa 0,0 l/m 2 min 0 min 499 W/m 9,7 km/h (2 Bft) 100,00 %
17.04.2020 10:22 13,9 C 18,3 C 19,4 C 68 % 1017,7 hPa 0,0 l/m 2 min 0 min 506 W/m 19,3 km/h (3 Bft) 100,00 %
17.04.2020 10:24 13,9 C 18,3 C 19,4 C 68 % 1017,7 hPa 0,0 l/m 2 min 0 min 514 W/m 9,7 km/h (2 Bft) 100,00 %
17.04.2020 10:26 14,0 C 18,3 C 20,0 C 67 % 1017,6 hPa 0,0 l/m 2 min 0 min 521 W/m 12,9 km/h (3 Bft) 100,00 %
17.04.2020 10:28 14,1 C 18,9 C 20,0 C 68 % 1017,7 hPa 0,0 l/m 2 min 0 min 524 W/m 9,7 km/h (2 Bft) 100,00 %
17.04.2020 10:30 14,2 C 18,9 C 20,0 C 68 % 1017,6 hPa 0,0 l/m 2 min 0 min 527 W/m 12,9 km/h (3 Bft) 100,00 %
17.04.2020 10:32 14,3 C 18,9 C 20,0 C 68 % 1017,6 hPa 0,0 l/m 2 min 0 min 532 W/m 12,9 km/h (3 Bft) 100,00 %
17.04.2020 10:34 14,3 C 18,9 C 19,4 C 67 % 1017,6 hPa 0,0 l/m 2 min 0 min 538 W/m 12,9 km/h (3 Bft) 100,00 %
17.04.2020 10:36 14,3 C 18,9 C 19,4 C 66 % 1017,6 hPa 0,0 l/m 2 min 0 min 545 W/m 12,9 km/h (3 Bft) 100,00 %
17.04.2020 10:38 14,3 C 19,4 C 20,0 C 66 % 1017,6 hPa 0,0 l/m 2 min 0 min 551 W/m 9,7 km/h (2 Bft) 100,00 %
17.04.2020 10:40 14,4 C 19,4 C 19,4 C 67 % 1017,5 hPa 0,0 l/m 2 min 0 min 557 W/m 6,4 km/h (2 Bft) 100,00 %
17.04.2020 10:42 14,5 C 19,4 C 20,0 C 67 % 1017,5 hPa 0,0 l/m 2 min 0 min 562 W/m 12,9 km/h (3 Bft) 97,83 %
17.04.2020 10:44 14,6 C 20,0 C 20,6 C 67 % 1017,5 hPa 0,0 l/m 2 min 0 min 566 W/m 12,9 km/h (3 Bft) 97,87 %
17.04.2020 10:46 14,7 C 19,4 C 20,6 C 66 % 1017,5 hPa 0,0 l/m 2 min 0 min 570 W/m 16,1 km/h (3 Bft) 100,00 %
17.04.2020 10:48 14,8 C 19,4 C 20,6 C 67 % 1017,5 hPa 0,0 l/m 2 min 0 min 575 W/m 9,7 km/h (2 Bft) 100,00 %
17.04.2020 10:50 14,8 C 20,6 C 21,1 C 67 % 1017,4 hPa 0,0 l/m 2 min 0 min 580 W/m 9,7 km/h (2 Bft) 100,00 %
17.04.2020 10:52 15,0 C 20,6 C 21,1 C 67 % 1017,5 hPa 0,0 l/m 2 min 0 min 584 W/m 9,7 km/h (2 Bft) 97,87 %
17.04.2020 10:54 15,1 C 20,6 C 20,6 C 66 % 1017,5 hPa 0,0 l/m 2 min 0 min 588 W/m 12,9 km/h (3 Bft) 100,00 %
17.04.2020 10:56 15,2 C 20,6 C 21,1 C 66 % 1017,5 hPa 0,0 l/m 2 min 0 min 593 W/m 9,7 km/h (2 Bft) 100,00 %
17.04.2020 10:58 15,3 C 20,0 C 20,6 C 65 % 1017,5 hPa 0,0 l/m 2 min 0 min 597 W/m 12,9 km/h (3 Bft) 97,87 %
17.04.2020 11:00 15,3 C 20,6 C 20,0 C 66 % 1017,5 hPa 0,0 l/m 2 min 0 min 602 W/m 19,3 km/h (3 Bft) 97,87 %
17.04.2020 11:02 15,4 C 20,6 C 19,4 C 65 % 1017,5 hPa 0,0 l/m 2 min 0 min 607 W/m 9,7 km/h (2 Bft) 97,87 %
17.04.2020 11:04 15,5 C 20,0 C 18,3 C 65 % 1017,6 hPa 0,0 l/m 2 min 0 min 614 W/m 12,9 km/h (3 Bft) 97,87 %
17.04.2020 11:06 15,6 C 20,6 C 17,8 C 65 % 1017,5 hPa 0,0 l/m 2 min 0 min 618 W/m 9,7 km/h (2 Bft) 97,83 %
17.04.2020 11:08 15,7 C 20,6 C 17,8 C 65 % 1017,6 hPa 0,0 l/m 2 min 0 min 622 W/m 12,9 km/h (3 Bft) 97,87 %
17.04.2020 11:10 15,7 C 20,6 C 16,7 C 64 % 1017,5 hPa 0,0 l/m 2 min 0 min 629 W/m 9,7 km/h (2 Bft) 95,74 %
17.04.2020 11:12 15,8 C 21,1 C 16,7 C 65 % 1017,5 hPa 0,0 l/m 2 min 0 min 635 W/m 16,1 km/h (3 Bft) 97,87 %
17.04.2020 11:14 15,8 C 21,1 C 16,1 C 65 % 1017,5 hPa 0,0 l/m 2 min 0 min 642 W/m 12,9 km/h (3 Bft) 97,87 %
17.04.2020 11:16 15,9 C 22,2 C 16,1 C 64 % 1017,5 hPa 0,0 l/m 2 min 0 min 650 W/m 9,7 km/h (2 Bft) 97,83 %
17.04.2020 11:18 16,1 C 22,2 C 16,1 C 64 % 1017,4 hPa 0,0 l/m 2 min 0 min 659 W/m 9,7 km/h (2 Bft) 97,87 %
17.04.2020 11:20 16,2 C 22,2 C 16,1 C 65 % 1017,4 hPa 0,0 l/m 2 min 0 min 658 W/m 6,4 km/h (2 Bft) 97,87 %
17.04.2020 11:22 16,3 C 22,2 C 16,1 C 65 % 1017,3 hPa 0,0 l/m 2 min 0 min 660 W/m 12,9 km/h (3 Bft) 97,87 %
17.04.2020 11:24 16,4 C 22,2 C 16,1 C 64 % 1017,3 hPa 0,0 l/m 2 min 0 min 655 W/m 9,7 km/h (2 Bft) 97,87 %
17.04.2020 11:26 16,5 C 22,2 C 16,1 C 64 % 1017,3 hPa 0,0 l/m 2 min 0 min 672 W/m 9,7 km/h (2 Bft) 95,74 %
17.04.2020 11:28 16,6 C 22,8 C 16,1 C 64 % 1017,3 hPa 0,0 l/m 2 min 0 min 669 W/m 12,9 km/h (3 Bft) 95,65 %
17.04.2020 11:30 16,7 C 22,2 C 16,1 C 63 % 1017,3 hPa 0,0 l/m 2 min 0 min 676 W/m 16,1 km/h (3 Bft) 95,74 %
17.04.2020 11:32 16,8 C 22,8 C 16,1 C 63 % 1017,3 hPa 0,0 l/m 2 min 0 min 679 W/m 9,7 km/h (2 Bft) 95,74 %
17.04.2020 11:34 16,9 C 22,8 C 16,1 C 63 % 1017,3 hPa 0,0 l/m 2 min 0 min 681 W/m 9,7 km/h (2 Bft) 95,74 %
17.04.2020 11:36 16,9 C 22,8 C 16,1 C 63 % 1017,3 hPa 0,0 l/m 2 min 0 min 682 W/m 12,9 km/h (3 Bft) 95,74 %
17.04.2020 11:38 17,1 C 22,2 C 16,1 C 62 % 1017,4 hPa 0,0 l/m 2 min 0 min 686 W/m 19,3 km/h (3 Bft) 95,74 %
17.04.2020 11:40 17,1 C 21,7 C 16,1 C 62 % 1017,3 hPa 0,0 l/m 2 min 0 min 688 W/m 22,5 km/h (4 Bft) 95,65 %
17.04.2020 11:42 17,1 C 21,7 C 16,1 C 62 % 1017,3 hPa 0,0 l/m 2 min 0 min 691 W/m 12,9 km/h (3 Bft) 97,87 %
17.04.2020 11:44 17,2 C 22,8 C 16,1 C 63 % 1017,4 hPa 0,0 l/m 2 min 0 min 692 W/m 9,7 km/h (2 Bft) 97,87 %
17.04.2020 11:46 17,3 C 22,8 C 16,1 C 62 % 1017,3 hPa 0,0 l/m 2 min 0 min 693 W/m 12,9 km/h (3 Bft) 95,74 %
17.04.2020 11:48 17,3 C 22,8 C 16,7 C 62 % 1017,3 hPa 0,0 l/m 2 min 0 min 695 W/m 12,9 km/h (3 Bft) 97,87 %
17.04.2020 11:50 17,3 C 22,8 C 16,7 C 61 % 1017,4 hPa 0,0 l/m 2 min 0 min 698 W/m 9,7 km/h (2 Bft) 97,87 %
17.04.2020 11:52 17,4 C 23,3 C 16,7 C 61 % 1017,3 hPa 0,0 l/m 2 min 0 min 706 W/m 12,9 km/h (3 Bft) 97,83 %
17.04.2020 11:54 17,4 C 23,3 C 16,7 C 61 % 1017,3 hPa 0,0 l/m 2 min 0 min 710 W/m 12,9 km/h (3 Bft) 97,87 %
17.04.2020 11:56 17,6 C 23,9 C 16,7 C 62 % 1017,3 hPa 0,0 l/m 2 min 0 min 712 W/m 6,4 km/h (2 Bft) 93,62 %
17.04.2020 11:58 17,7 C 23,3 C 16,7 C 61 % 1017,4 hPa 0,0 l/m 2 min 0 min 714 W/m 9,7 km/h (2 Bft) 97,87 %
17.04.2020 12:00 17,7 C 23,9 C 17,2 C 62 % 1017,3 hPa 0,0 l/m 2 min 0 min 717 W/m 9,7 km/h (2 Bft) 97,87 %
17.04.2020 12:02 17,8 C 23,9 C 16,7 C 62 % 1017,3 hPa 0,0 l/m 2 min 0 min 722 W/m 9,7 km/h (2 Bft) 97,87 %
17.04.2020 12:04 17,9 C 23,3 C 16,7 C 61 % 1017,3 hPa 0,0 l/m 2 min 0 min 728 W/m 9,7 km/h (2 Bft) 97,83 %
17.04.2020 12:06 18,0 C 23,9 C 17,2 C 61 % 1017,3 hPa 0,0 l/m 2 min 0 min 733 W/m 9,7 km/h (2 Bft) 95,74 %
17.04.2020 12:08 18,1 C 24,4 C 17,2 C 62 % 1017,3 hPa 0,0 l/m 2 min 0 min 736 W/m 9,7 km/h (2 Bft) 97,87 %
17.04.2020 12:10 18,2 C 23,9 C 17,2 C 61 % 1017,3 hPa 0,0 l/m 2 min 0 min 660 W/m 16,1 km/h (3 Bft) 100,00 %
17.04.2020 12:12 18,2 C 23,3 C 17,2 C 60 % 1017,3 hPa 0,0 l/m 2 min 0 min 627 W/m 9,7 km/h (2 Bft) 100,00 %
17.04.2020 12:14 18,3 C 23,9 C 17,2 C 61 % 1017,2 hPa 0,0 l/m 2 min 0 min 733 W/m 6,4 km/h (2 Bft) 97,87 %
17.04.2020 12:16 18,4 C 23,9 C 17,2 C 61 % 1017,3 hPa 0,0 l/m 2 min 0 min 747 W/m 9,7 km/h (2 Bft) 100,00 %
17.04.2020 12:18 18,4 C 23,9 C 17,2 C 60 % 1017,2 hPa 0,0 l/m 2 min 0 min 748 W/m 3,2 km/h (1 Bft) 100,00 %
17.04.2020 12:20 18,5 C 23,3 C 17,2 C 58 % 1017,3 hPa 0,0 l/m 2 min 0 min 752 W/m 9,7 km/h (2 Bft) 100,00 %
17.04.2020 12:22 18,5 C 23,3 C 17,2 C 59 % 1017,1 hPa 0,0 l/m 2 min 0 min 753 W/m 12,9 km/h (3 Bft) 100,00 %
17.04.2020 12:24 18,5 C 23,3 C 17,2 C 60 % 1017,1 hPa 0,0 l/m 2 min 0 min 759 W/m 12,9 km/h (3 Bft) 100,00 %
17.04.2020 12:26 18,6 C 24,4 C 17,8 C 60 % 1017,1 hPa 0,0 l/m 2 min 0 min 762 W/m 9,7 km/h (2 Bft) 100,00 %
17.04.2020 12:28 18,6 C 23,9 C 17,8 C 59 % 1017,1 hPa 0,0 l/m 2 min 0 min 755 W/m 12,9 km/h (3 Bft) 100,00 %
17.04.2020 12:30 18,7 C 23,3 C 17,8 C 59 % 1017,1 hPa 0,0 l/m 2 min 0 min 700 W/m 12,9 km/h (3 Bft) 97,87 %
17.04.2020 12:32 18,7 C 23,3 C 17,8 C 59 % 1017,1 hPa 0,0 l/m 2 min 0 min 697 W/m 9,7 km/h (2 Bft) 97,87 %
17.04.2020 12:34 18,7 C 23,3 C 17,8 C 59 % 1017,0 hPa 0,0 l/m 2 min 0 min 712 W/m 19,3 km/h (3 Bft) 100,00 %
17.04.2020 12:36 18,7 C 23,9 C 17,8 C 60 % 1017,0 hPa 0,0 l/m 2 min 0 min 698 W/m 22,5 km/h (4 Bft) 100,00 %
17.04.2020 12:38 18,8 C 23,9 C 18,3 C 59 % 1016,9 hPa 0,0 l/m 2 min 0 min 757 W/m 9,7 km/h (2 Bft) 100,00 %
17.04.2020 12:40 18,8 C 23,9 C 18,3 C 60 % 1017,0 hPa 0,0 l/m 2 min 0 min 768 W/m 9,7 km/h (2 Bft) 95,74 %
17.04.2020 12:42 18,9 C 24,4 C 18,3 C 59 % 1016,9 hPa 0,0 l/m 2 min 0 min 776 W/m 9,7 km/h (2 Bft) 97,87 %
17.04.2020 12:44 19,0 C 25,0 C 18,9 C 60 % 1017,0 hPa 0,0 l/m 2 min 0 min 785 W/m 12,9 km/h (3 Bft) 100,00 %
17.04.2020 12:46 19,1 C 25,6 C 18,9 C 60 % 1017,0 hPa 0,0 l/m 2 min 0 min 788 W/m 9,7 km/h (2 Bft) 100,00 %
17.04.2020 12:48 19,3 C 26,1 C 18,9 C 60 % 1017,0 hPa 0,0 l/m 2 min 0 min 788 W/m 9,7 km/h (2 Bft) 95,74 %
17.04.2020 12:50 19,4 C 26,1 C 19,4 C 59 % 1017,1 hPa 0,0 l/m 2 min 0 min 791 W/m 3,2 km/h (1 Bft) 97,83 %
17.04.2020 12:52 19,6 C 26,7 C 19,4 C 60 % 1017,0 hPa 0,0 l/m 2 min 0 min 792 W/m 9,7 km/h (2 Bft) 100,00 %
17.04.2020 12:54 19,7 C 26,1 C 19,4 C 59 % 1016,9 hPa 0,0 l/m 2 min 0 min 786 W/m 16,1 km/h (3 Bft) 100,00 %
17.04.2020 12:56 19,8 C 26,1 C 20,0 C 59 % 1016,9 hPa 0,0 l/m 2 min 0 min 791 W/m 9,7 km/h (2 Bft) 97,87 %
17.04.2020 12:58 19,9 C 26,1 C 20,0 C 58 % 1016,9 hPa 0,0 l/m 2 min 0 min 795 W/m 12,9 km/h (3 Bft) 97,87 %
17.04.2020 13:00 20,0 C 26,1 C 20,0 C 58 % 1016,8 hPa 0,0 l/m 2 min 0 min 798 W/m 12,9 km/h (3 Bft) 100,00 %
17.04.2020 13:02 20,1 C 25,6 C 20,0 C 56 % 1016,8 hPa 0,0 l/m 2 min 0 min 796 W/m 12,9 km/h (3 Bft) 100,00 %
17.04.2020 13:04 20,1 C 25,6 C 20,0 C 56 % 1016,8 hPa 0,0 l/m 2 min 0 min 798 W/m 9,7 km/h (2 Bft) 100,00 %
17.04.2020 13:06 20,2 C 26,1 C 20,0 C 57 % 1016,7 hPa 0,0 l/m 2 min 0 min 798 W/m 9,7 km/h (2 Bft) 97,83 %
17.04.2020 13:08 20,2 C 25,6 C 20,0 C 57 % 1016,7 hPa 0,0 l/m 2 min 0 min 797 W/m 9,7 km/h (2 Bft) 97,87 %
17.04.2020 13:10 20,3 C 25,6 C 20,0 C 56 % 1016,7 hPa 0,0 l/m 2 min 0 min 797 W/m 9,7 km/h (2 Bft) 95,74 %
17.04.2020 13:12 20,3 C 26,1 C 20,0 C 56 % 1016,7 hPa 0,0 l/m 2 min 0 min 797 W/m 12,9 km/h (3 Bft) 97,87 %
17.04.2020 13:14 20,4 C 26,7 C 20,0 C 58 % 1016,7 hPa 0,0 l/m 2 min 0 min 798 W/m 6,4 km/h (2 Bft) 97,87 %
17.04.2020 13:16 20,4 C 25,6 C 20,0 C 55 % 1016,7 hPa 0,0 l/m 2 min 0 min 801 W/m 16,1 km/h (3 Bft) 97,87 %
17.04.2020 13:18 20,4 C 25,0 C 20,0 C 55 % 1016,7 hPa 0,0 l/m 2 min 0 min 802 W/m 16,1 km/h (3 Bft) 97,83 %
17.04.2020 13:20 20,5 C 25,6 C 20,0 C 56 % 1016,7 hPa 0,0 l/m 2 min 0 min 799 W/m 12,9 km/h (3 Bft) 97,87 %
17.04.2020 13:22 20,5 C 25,6 C 20,0 C 55 % 1016,7 hPa 0,0 l/m 2 min 0 min 799 W/m 9,7 km/h (2 Bft) 97,87 %
17.04.2020 13:24 20,5 C 25,0 C 20,0 C 55 % 1016,7 hPa 0,0 l/m 2 min 0 min 797 W/m 12,9 km/h (3 Bft) 97,87 %
17.04.2020 13:26 20,5 C 25,6 C 20,6 C 55 % 1016,7 hPa 0,0 l/m 2 min 0 min 798 W/m 12,9 km/h (3 Bft) 97,87 %
17.04.2020 13:28 20,5 C 25,6 C 20,6 C 55 % 1016,7 hPa 0,0 l/m 2 min 0 min 801 W/m 22,5 km/h (4 Bft) 97,83 %
17.04.2020 13:30 20,5 C 25,6 C 20,6 C 54 % 1016,6 hPa 0,0 l/m 2 min 0 min 801 W/m 12,9 km/h (3 Bft) 97,87 %
17.04.2020 13:32 20,5 C 26,1 C 21,1 C 57 % 1016,7 hPa 0,0 l/m 2 min 0 min 802 W/m 6,4 km/h (2 Bft) 95,74 %
17.04.2020 13:34 20,5 C 25,6 C 21,7 C 55 % 1016,6 hPa 0,0 l/m 2 min 0 min 803 W/m 22,5 km/h (4 Bft) 100,00 %
17.04.2020 13:36 20,6 C 26,1 C 22,8 C 55 % 1016,6 hPa 0,0 l/m 2 min 0 min 804 W/m 19,3 km/h (3 Bft) 97,87 %
17.04.2020 13:38 20,6 C 26,1 C 24,4 C 55 % 1016,6 hPa 0,0 l/m 2 min 0 min 805 W/m 9,7 km/h (2 Bft) 97,87 %
17.04.2020 13:40 20,6 C 26,1 C 26,1 C 54 % 1016,6 hPa 0,0 l/m 2 min 0 min 805 W/m 6,4 km/h (2 Bft) 97,83 %
17.04.2020 13:42 20,7 C 26,7 C 27,2 C 56 % 1016,6 hPa 0,0 l/m 2 min 0 min 803 W/m 12,9 km/h (3 Bft) 95,74 %
17.04.2020 13:44 20,8 C 26,7 C 27,8 C 56 % 1016,6 hPa 0,0 l/m 2 min 0 min 804 W/m 9,7 km/h (2 Bft) 97,87 %
17.04.2020 13:46 20,9 C 26,1 C 27,8 C 55 % 1016,6 hPa 0,0 l/m 2 min 0 min 805 W/m 6,4 km/h (2 Bft) 97,87 %
17.04.2020 13:48 20,9 C 25,6 C 27,8 C 54 % 1016,5 hPa 0,0 l/m 2 min 0 min 807 W/m 16,1 km/h (3 Bft) 97,87 %
17.04.2020 13:50 20,9 C 25,6 C 27,8 C 55 % 1016,5 hPa 0,0 l/m 2 min 0 min 804 W/m 12,9 km/h (3 Bft) 97,87 %
17.04.2020 13:52 20,9 C 26,1 C 27,8 C 55 % 1016,5 hPa 0,0 l/m 2 min 0 min 801 W/m 9,7 km/h (2 Bft) 97,83 %
17.04.2020 13:54 20,9 C 26,1 C 27,8 C 55 % 1016,5 hPa 0,0 l/m 2 min 0 min 800 W/m 12,9 km/h (3 Bft) 95,74 %
17.04.2020 13:56 21,0 C 26,1 C 28,3 C 55 % 1016,5 hPa 0,0 l/m 2 min 0 min 801 W/m 9,7 km/h (2 Bft) 91,49 %
17.04.2020 13:58 21,1 C 26,1 C 28,3 C 55 % 1016,5 hPa 0,0 l/m 2 min 0 min 799 W/m 16,1 km/h (3 Bft) 93,62 %
17.04.2020 14:00 21,1 C 25,6 C 27,8 C 54 % 1016,5 hPa 0,0 l/m 2 min 0 min 800 W/m 9,7 km/h (2 Bft) 93,62 %
17.04.2020 14:02 21,1 C 26,7 C 28,3 C 55 % 1016,5 hPa 0,0 l/m 2 min 0 min 802 W/m 6,4 km/h (2 Bft) 93,62 %
17.04.2020 14:04 21,1 C 26,7 C 28,9 C 55 % 1016,5 hPa 0,0 l/m 2 min 0 min 800 W/m 6,4 km/h (2 Bft) 93,48 %
17.04.2020 14:06 21,2 C 27,2 C 29,4 C 55 % 1016,5 hPa 0,0 l/m 2 min 0 min 801 W/m 3,2 km/h (1 Bft) 93,62 %
17.04.2020 14:08 21,3 C 27,8 C 30,0 C 56 % 1016,5 hPa 0,0 l/m 2 min 0 min 799 W/m 9,7 km/h (2 Bft) 93,62 %
17.04.2020 14:10 21,4 C 27,8 C 30,0 C 56 % 1016,4 hPa 0,0 l/m 2 min 0 min 798 W/m 12,9 km/h (3 Bft) 93,62 %
17.04.2020 14:12 21,6 C 26,7 C 28,9 C 55 % 1016,4 hPa 0,0 l/m 2 min 0 min 795 W/m 16,1 km/h (3 Bft) 89,36 %
17.04.2020 14:14 21,6 C 26,7 C 28,3 C 53 % 1016,5 hPa 0,0 l/m 2 min 0 min 794 W/m 12,9 km/h (3 Bft) 93,62 %
17.04.2020 14:16 21,6 C 26,7 C 28,3 C 53 % 1016,4 hPa 0,0 l/m 2 min 0 min 794 W/m 9,7 km/h (2 Bft) 93,48 %
17.04.2020 14:18 21,6 C 26,7 C 28,3 C 53 % 1016,4 hPa 0,0 l/m 2 min 0 min 795 W/m 9,7 km/h (2 Bft) 93,62 %
17.04.2020 14:20 21,6 C 27,2 C 28,3 C 54 % 1016,3 hPa 0,0 l/m 2 min 0 min 795 W/m 3,2 km/h (1 Bft) 93,62 %
17.04.2020 14:22 21,6 C 26,1 C 27,8 C 51 % 1016,3 hPa 0,0 l/m 2 min 0 min 792 W/m 12,9 km/h (3 Bft) 93,62 %
17.04.2020 14:24 21,6 C 26,1 C 28,3 C 52 % 1016,2 hPa 0,0 l/m 2 min 0 min 790 W/m 9,7 km/h (2 Bft) 93,62 %
17.04.2020 14:26 21,6 C 26,1 C 27,8 C 51 % 1016,2 hPa 0,0 l/m 2 min 0 min 787 W/m 9,7 km/h (2 Bft) 93,48 %
17.04.2020 14:28 21,6 C 25,6 C 27,2 C 52 % 1016,2 hPa 0,0 l/m 2 min 0 min 787 W/m 9,7 km/h (2 Bft) 93,62 %
17.04.2020 14:30 21,6 C 25,0 C 25,6 C 52 % 1016,2 hPa 0,0 l/m 2 min 0 min 787 W/m 12,9 km/h (3 Bft) 93,62 %
17.04.2020 14:32 21,6 C 26,1 C 24,4 C 53 % 1016,2 hPa 0,0 l/m 2 min 0 min 788 W/m 9,7 km/h (2 Bft) 91,49 %
17.04.2020 14:34 21,6 C 26,1 C 23,9 C 53 % 1016,2 hPa 0,0 l/m 2 min 0 min 788 W/m 16,1 km/h (3 Bft) 93,62 %
17.04.2020 14:36 21,6 C 26,7 C 23,3 C 53 % 1016,1 hPa 0,0 l/m 2 min 0 min 786 W/m 9,7 km/h (2 Bft) 93,62 %
17.04.2020 14:38 21,6 C 26,7 C 22,8 C 53 % 1016,2 hPa 0,0 l/m 2 min 0 min 780 W/m 12,9 km/h (3 Bft) 97,83 %
17.04.2020 14:40 21,6 C 26,7 C 22,8 C 52 % 1016,1 hPa 0,0 l/m 2 min 0 min 780 W/m 9,7 km/h (2 Bft) 97,87 %
17.04.2020 14:42 21,7 C 26,7 C 22,8 C 52 % 1016,1 hPa 0,0 l/m 2 min 0 min 776 W/m 12,9 km/h (3 Bft) 95,74 %
17.04.2020 14:44 21,7 C 26,7 C 22,2 C 51 % 1016,1 hPa 0,0 l/m 2 min 0 min 771 W/m 6,4 km/h (2 Bft) 97,87 %
17.04.2020 14:46 21,7 C 26,1 C 22,2 C 52 % 1016,2 hPa 0,0 l/m 2 min 0 min 770 W/m 12,9 km/h (3 Bft) 95,74 %
17.04.2020 14:48 21,7 C 26,1 C 21,7 C 51 % 1016,2 hPa 0,0 l/m 2 min 0 min 771 W/m 12,9 km/h (3 Bft) 100,00 %
17.04.2020 14:50 21,7 C 26,7 C 21,7 C 51 % 1016,1 hPa 0,0 l/m 2 min 0 min 769 W/m 12,9 km/h (3 Bft) 97,83 %
17.04.2020 14:52 21,8 C 27,2 C 22,2 C 53 % 1016,2 hPa 0,0 l/m 2 min 0 min 763 W/m 9,7 km/h (2 Bft) 100,00 %
17.04.2020 14:54 21,8 C 27,2 C 22,2 C 51 % 1016,2 hPa 0,0 l/m 2 min 0 min 760 W/m 9,7 km/h (2 Bft) 100,00 %
17.04.2020 14:56 21,9 C 27,2 C 22,2 C 51 % 1016,2 hPa 0,0 l/m 2 min 0 min 760 W/m 6,4 km/h (2 Bft) 100,00 %
17.04.2020 14:58 21,9 C 27,2 C 21,7 C 52 % 1016,2 hPa 0,0 l/m 2 min 0 min 759 W/m 12,9 km/h (3 Bft) 100,00 %
17.04.2020 15:00 21,9 C 27,2 C 21,7 C 51 % 1016,2 hPa 0,0 l/m 2 min 0 min 757 W/m 12,9 km/h (3 Bft) 100,00 %
17.04.2020 15:02 22,0 C 27,2 C 22,2 C 51 % 1016,2 hPa 0,0 l/m 2 min 0 min 758 W/m 9,7 km/h (2 Bft) 100,00 %
17.04.2020 15:04 22,1 C 27,2 C 22,2 C 51 % 1016,1 hPa 0,0 l/m 2 min 0 min 755 W/m 12,9 km/h (3 Bft) 100,00 %
17.04.2020 15:06 22,1 C 27,2 C 22,2 C 50 % 1016,1 hPa 0,0 l/m 2 min 0 min 752 W/m 9,7 km/h (2 Bft) 100,00 %
17.04.2020 15:08 22,2 C 27,2 C 22,2 C 50 % 1016,1 hPa 0,0 l/m 2 min 0 min 750 W/m 12,9 km/h (3 Bft) 100,00 %
17.04.2020 15:10 22,2 C 26,7 C 22,2 C 50 % 1016,0 hPa 0,0 l/m 2 min 0 min 742 W/m 12,9 km/h (3 Bft) 100,00 %
17.04.2020 15:12 22,1 C 26,1 C 21,7 C 49 % 1016,1 hPa 0,0 l/m 2 min 0 min 733 W/m 16,1 km/h (3 Bft) 100,00 %
17.04.2020 15:14 22,1 C 25,6 C 21,7 C 50 % 1016,1 hPa 0,0 l/m 2 min 0 min 722 W/m 22,5 km/h (4 Bft) 100,00 %
17.04.2020 15:16 22,1 C 25,6 C 21,7 C 50 % 1016,1 hPa 0,0 l/m 2 min 0 min 707 W/m 9,7 km/h (2 Bft) 100,00 %
17.04.2020 15:18 22,1 C 26,1 C 21,7 C 50 % 1016,1 hPa 0,0 l/m 2 min 0 min 702 W/m 9,7 km/h (2 Bft) 100,00 %
17.04.2020 15:20 22,0 C 25,6 C 21,7 C 49 % 1016,0 hPa 0,0 l/m 2 min 0 min 711 W/m 16,1 km/h (3 Bft) 100,00 %
17.04.2020 15:22 22,0 C 26,1 C 21,7 C 50 % 1016,1 hPa 0,0 l/m 2 min 0 min 727 W/m 12,9 km/h (3 Bft) 100,00 %
17.04.2020 15:24 22,0 C 26,1 C 22,2 C 50 % 1016,0 hPa 0,0 l/m 2 min 0 min 731 W/m 9,7 km/h (2 Bft) 100,00 %
17.04.2020 15:26 22,0 C 25,6 C 21,7 C 49 % 1016,0 hPa 0,0 l/m 2 min 0 min 731 W/m 12,9 km/h (3 Bft) 97,83 %
17.04.2020 15:28 21,9 C 25,6 C 21,7 C 49 % 1016,0 hPa 0,0 l/m 2 min 0 min 729 W/m 9,7 km/h (2 Bft) 100,00 %
17.04.2020 15:30 21,9 C 25,6 C 21,7 C 49 % 1015,9 hPa 0,0 l/m 2 min 0 min 724 W/m 25,7 km/h (4 Bft) 100,00 %
17.04.2020 15:32 21,9 C 26,1 C 22,2 C 51 % 1015,9 hPa 0,0 l/m 2 min 0 min 692 W/m 9,7 km/h (2 Bft) 100,00 %
17.04.2020 15:34 21,9 C 26,1 C 21,7 C 51 % 1015,9 hPa 0,0 l/m 2 min 0 min 646 W/m 12,9 km/h (3 Bft) 100,00 %
17.04.2020 15:36 22,0 C 26,1 C 21,7 C 50 % 1015,9 hPa 0,0 l/m 2 min 0 min 664 W/m 9,7 km/h (2 Bft) 100,00 %
17.04.2020 15:38 22,1 C 26,7 C 22,2 C 52 % 1015,9 hPa 0,0 l/m 2 min 0 min 641 W/m 6,4 km/h (2 Bft) 100,00 %
17.04.2020 15:40 22,1 C 26,1 C 21,7 C 50 % 1015,9 hPa 0,0 l/m 2 min 0 min 631 W/m 16,1 km/h (3 Bft) 100,00 %
17.04.2020 15:42 22,1 C 25,6 C 21,7 C 50 % 1015,9 hPa 0,0 l/m 2 min 0 min 638 W/m 9,7 km/h (2 Bft) 100,00 %
17.04.2020 15:44 22,1 C 25,6 C 21,7 C 50 % 1015,8 hPa 0,0 l/m 2 min 0 min 630 W/m 9,7 km/h (2 Bft) 100,00 %
17.04.2020 15:46 22,1 C 25,6 C 21,7 C 50 % 1015,9 hPa 0,0 l/m 2 min 0 min 672 W/m 16,1 km/h (3 Bft) 100,00 %
17.04.2020 15:48 22,1 C 26,1 C 22,2 C 50 % 1015,8 hPa 0,0 l/m 2 min 0 min 688 W/m 9,7 km/h (2 Bft) 100,00 %
17.04.2020 15:50 22,1 C 26,1 C 22,2 C 50 % 1015,9 hPa 0,0 l/m 2 min 0 min 686 W/m 9,7 km/h (2 Bft) 100,00 %
17.04.2020 15:52 22,2 C 26,1 C 22,2 C 49 % 1015,9 hPa 0,0 l/m 2 min 0 min 681 W/m 12,9 km/h (3 Bft) 100,00 %
17.04.2020 15:54 22,2 C 26,1 C 22,2 C 50 % 1015,9 hPa 0,0 l/m 2 min 0 min 678 W/m 9,7 km/h (2 Bft) 100,00 %
17.04.2020 15:56 22,2 C 26,1 C 22,2 C 49 % 1015,8 hPa 0,0 l/m 2 min 0 min 672 W/m 9,7 km/h (2 Bft) 100,00 %
17.04.2020 15:58 22,2 C 26,7 C 22,2 C 50 % 1015,8 hPa 0,0 l/m 2 min 0 min 666 W/m 9,7 km/h (2 Bft) 97,87 %
17.04.2020 16:00 22,3 C 26,1 C 21,7 C 48 % 1015,8 hPa 0,0 l/m 2 min 0 min 660 W/m 12,9 km/h (3 Bft) 100,00 %
17.04.2020 16:02 22,3 C 26,1 C 22,2 C 49 % 1015,7 hPa 0,0 l/m 2 min 0 min 655 W/m 12,9 km/h (3 Bft) 100,00 %
17.04.2020 16:04 22,3 C 26,1 C 22,2 C 49 % 1015,7 hPa 0,0 l/m 2 min 0 min 651 W/m 9,7 km/h (2 Bft) 100,00 %
17.04.2020 16:06 22,3 C 26,1 C 21,7 C 49 % 1015,7 hPa 0,0 l/m 2 min 0 min 649 W/m 12,9 km/h (3 Bft) 100,00 %
17.04.2020 16:08 22,3 C 26,1 C 22,2 C 49 % 1015,7 hPa 0,0 l/m 2 min 0 min 643 W/m 12,9 km/h (3 Bft) 100,00 %
17.04.2020 16:10 22,3 C 26,1 C 22,2 C 50 % 1015,7 hPa 0,0 l/m 2 min 0 min 638 W/m 16,1 km/h (3 Bft) 100,00 %
17.04.2020 16:12 22,4 C 26,1 C 22,2 C 51 % 1015,7 hPa 0,0 l/m 2 min 0 min 630 W/m 12,9 km/h (3 Bft) 100,00 %
17.04.2020 16:14 22,4 C 26,1 C 22,2 C 49 % 1015,6 hPa 0,0 l/m 2 min 0 min 630 W/m 9,7 km/h (2 Bft) 100,00 %
17.04.2020 16:16 22,4 C 25,6 C 22,2 C 48 % 1015,6 hPa 0,0 l/m 2 min 0 min 627 W/m 12,9 km/h (3 Bft) 100,00 %
17.04.2020 16:18 22,4 C 25,6 C 22,2 C 48 % 1015,5 hPa 0,0 l/m 2 min 0 min 622 W/m 6,4 km/h (2 Bft) 100,00 %
17.04.2020 16:20 22,4 C 26,1 C 22,2 C 49 % 1015,5 hPa 0,0 l/m 2 min 0 min 619 W/m 9,7 km/h (2 Bft) 100,00 %
17.04.2020 16:22 22,4 C 25,6 C 22,2 C 48 % 1015,5 hPa 0,0 l/m 2 min 0 min 613 W/m 12,9 km/h (3 Bft) 97,87 %
17.04.2020 16:24 22,4 C 25,6 C 22,8 C 49 % 1015,5 hPa 0,0 l/m 2 min 0 min 609 W/m 9,7 km/h (2 Bft) 100,00 %
17.04.2020 16:26 22,4 C 26,1 C 23,3 C 49 % 1015,5 hPa 0,0 l/m 2 min 0 min 606 W/m 16,1 km/h (3 Bft) 97,87 %
17.04.2020 16:28 22,4 C 26,1 C 25,0 C 49 % 1015,5 hPa 0,0 l/m 2 min 0 min 602 W/m 9,7 km/h (2 Bft) 97,87 %
17.04.2020 16:30 22,5 C 25,6 C 25,0 C 48 % 1015,4 hPa 0,0 l/m 2 min 0 min 596 W/m 16,1 km/h (3 Bft) 93,62 %
17.04.2020 16:32 22,4 C 25,0 C 24,4 C 47 % 1015,4 hPa 0,0 l/m 2 min 0 min 591 W/m 9,7 km/h (2 Bft) 95,74 %
17.04.2020 16:34 22,4 C 25,0 C 23,9 C 48 % 1015,3 hPa 0,0 l/m 2 min 0 min 585 W/m 16,1 km/h (3 Bft) 97,87 %
17.04.2020 16:36 22,4 C 25,0 C 22,8 C 47 % 1015,3 hPa 0,0 l/m 2 min 0 min 581 W/m 16,1 km/h (3 Bft) 97,83 %
17.04.2020 16:38 22,4 C 25,0 C 22,2 C 47 % 1015,3 hPa 0,0 l/m 2 min 0 min 575 W/m 22,5 km/h (4 Bft) 95,74 %
17.04.2020 16:40 22,4 C 25,6 C 22,2 C 48 % 1015,3 hPa 0,0 l/m 2 min 0 min 573 W/m 9,7 km/h (2 Bft) 95,74 %
17.04.2020 16:42 22,4 C 25,6 C 22,2 C 48 % 1015,3 hPa 0,0 l/m 2 min 0 min 567 W/m 12,9 km/h (3 Bft) 97,87 %
17.04.2020 16:44 22,4 C 25,6 C 22,2 C 48 % 1015,2 hPa 0,0 l/m 2 min 0 min 563 W/m 16,1 km/h (3 Bft) 95,74 %
17.04.2020 16:46 22,4 C 26,1 C 22,8 C 49 % 1015,2 hPa 0,0 l/m 2 min 0 min 559 W/m 9,7 km/h (2 Bft) 95,65 %
17.04.2020 16:48 22,5 C 26,1 C 22,8 C 48 % 1015,2 hPa 0,0 l/m 2 min 0 min 556 W/m 9,7 km/h (2 Bft) 95,74 %
17.04.2020 16:50 22,5 C 25,0 C 23,3 C 48 % 1015,1 hPa 0,0 l/m 2 min 0 min 552 W/m 16,1 km/h (3 Bft) 93,62 %
17.04.2020 16:52 22,5 C 25,0 C 23,3 C 48 % 1015,1 hPa 0,0 l/m 2 min 0 min 549 W/m 9,7 km/h (2 Bft) 95,74 %
17.04.2020 16:54 22,5 C 25,0 C 22,8 C 47 % 1015,1 hPa 0,0 l/m 2 min 0 min 543 W/m 6,4 km/h (2 Bft) 95,74 %
17.04.2020 16:56 22,5 C 25,0 C 22,2 C 47 % 1015,0 hPa 0,0 l/m 2 min 0 min 536 W/m 9,7 km/h (2 Bft) 93,62 %
17.04.2020 16:58 22,4 C 24,4 C 22,8 C 47 % 1015,1 hPa 0,0 l/m 2 min 0 min 533 W/m 12,9 km/h (3 Bft) 95,65 %
17.04.2020 17:00 22,4 C 25,0 C 23,9 C 47 % 1015,1 hPa 0,0 l/m 2 min 0 min 530 W/m 16,1 km/h (3 Bft) 93,62 %
17.04.2020 17:02 22,4 C 24,4 C 23,9 C 47 % 1015,0 hPa 0,0 l/m 2 min 0 min 522 W/m 12,9 km/h (3 Bft) 95,74 %
17.04.2020 17:04 22,4 C 25,0 C 24,4 C 48 % 1015,0 hPa 0,0 l/m 2 min 0 min 514 W/m 9,7 km/h (2 Bft) 95,74 %
17.04.2020 17:06 22,4 C 25,0 C 25,6 C 48 % 1015,0 hPa 0,0 l/m 2 min 0 min 512 W/m 12,9 km/h (3 Bft) 93,62 %
17.04.2020 17:08 22,4 C 25,0 C 25,6 C 48 % 1015,0 hPa 0,0 l/m 2 min 0 min 504 W/m 12,9 km/h (3 Bft) 93,62 %
17.04.2020 17:10 22,4 C 25,0 C 25,6 C 48 % 1014,9 hPa 0,0 l/m 2 min 0 min 497 W/m 9,7 km/h (2 Bft) 95,65 %
17.04.2020 17:12 22,4 C 25,0 C 25,6 C 47 % 1015,0 hPa 0,0 l/m 2 min 0 min 494 W/m 9,7 km/h (2 Bft) 95,74 %
17.04.2020 17:14 22,4 C 24,4 C 24,4 C 47 % 1014,9 hPa 0,0 l/m 2 min 0 min 487 W/m 9,7 km/h (2 Bft) 95,74 %
17.04.2020 17:16 22,4 C 24,4 C 24,4 C 47 % 1014,9 hPa 0,0 l/m 2 min 0 min 479 W/m 19,3 km/h (3 Bft) 93,62 %
17.04.2020 17:18 22,3 C 24,4 C 24,4 C 48 % 1014,9 hPa 0,0 l/m 2 min 0 min 475 W/m 9,7 km/h (2 Bft) 95,74 %
17.04.2020 17:20 22,3 C 24,4 C 25,0 C 47 % 1014,9 hPa 0,0 l/m 2 min 0 min 468 W/m 12,9 km/h (3 Bft) 95,74 %
17.04.2020 17:22 22,3 C 24,4 C 25,0 C 48 % 1014,9 hPa 0,0 l/m 2 min 0 min 442 W/m 19,3 km/h (3 Bft) 95,65 %
17.04.2020 17:24 22,2 C 24,4 C 25,6 C 48 % 1014,9 hPa 0,0 l/m 2 min 0 min 454 W/m 9,7 km/h (2 Bft) 95,74 %
17.04.2020 17:26 22,2 C 23,9 C 24,4 C 48 % 1014,9 hPa 0,0 l/m 2 min 0 min 451 W/m 12,9 km/h (3 Bft) 95,74 %
17.04.2020 17:28 22,2 C 23,9 C 24,4 C 48 % 1014,9 hPa 0,0 l/m 2 min 0 min 444 W/m 9,7 km/h (2 Bft) 95,74 %
17.04.2020 17:30 22,2 C 24,4 C 25,0 C 49 % 1014,9 hPa 0,0 l/m 2 min 0 min 437 W/m 9,7 km/h (2 Bft) 93,62 %
17.04.2020 17:32 22,2 C 25,0 C 24,4 C 50 % 1014,9 hPa 0,0 l/m 2 min 0 min 431 W/m 6,4 km/h (2 Bft) 95,74 %
17.04.2020 17:34 22,2 C 24,4 C 23,9 C 49 % 1014,9 hPa 0,0 l/m 2 min 0 min 426 W/m 22,5 km/h (4 Bft) 95,65 %
17.04.2020 17:36 22,2 C 23,9 C 22,2 C 48 % 1014,9 hPa 0,0 l/m 2 min 0 min 422 W/m 19,3 km/h (3 Bft) 95,74 %
17.04.2020 17:38 22,2 C 23,9 C 21,7 C 49 % 1014,9 hPa 0,0 l/m 2 min 0 min 417 W/m 6,4 km/h (2 Bft) 95,74 %
17.04.2020 17:40 22,2 C 23,9 C 20,6 C 49 % 1014,8 hPa 0,0 l/m 2 min 0 min 412 W/m 9,7 km/h (2 Bft) 97,87 %
17.04.2020 17:42 22,1 C 23,9 C 20,6 C 49 % 1014,9 hPa 0,0 l/m 2 min 0 min 408 W/m 6,4 km/h (2 Bft) 97,87 %
17.04.2020 17:44 22,1 C 23,9 C 20,6 C 49 % 1014,8 hPa 0,0 l/m 2 min 0 min 401 W/m 9,7 km/h (2 Bft) 97,83 %
17.04.2020 17:46 22,1 C 23,9 C 20,6 C 49 % 1014,8 hPa 0,0 l/m 2 min 0 min 396 W/m 6,4 km/h (2 Bft) 97,87 %
17.04.2020 17:48 22,1 C 23,9 C 20,6 C 49 % 1014,9 hPa 0,0 l/m 2 min 0 min 391 W/m 9,7 km/h (2 Bft) 97,87 %
17.04.2020 17:50 22,1 C 23,9 C 20,0 C 49 % 1014,9 hPa 0,0 l/m 2 min 0 min 382 W/m 6,4 km/h (2 Bft) 97,87 %
17.04.2020 17:52 22,1 C 23,9 C 20,0 C 49 % 1014,9 hPa 0,0 l/m 2 min 0 min 375 W/m 3,2 km/h (1 Bft) 97,87 %
17.04.2020 17:54 22,1 C 23,9 C 19,4 C 49 % 1014,8 hPa 0,0 l/m 2 min 0 min 374 W/m 6,4 km/h (2 Bft) 95,74 %
17.04.2020 17:56 22,1 C 23,9 C 19,4 C 49 % 1014,8 hPa 0,0 l/m 2 min 0 min 367 W/m 9,7 km/h (2 Bft) 97,83 %
17.04.2020 17:58 22,1 C 23,3 C 19,4 C 48 % 1014,8 hPa 0,0 l/m 2 min 0 min 363 W/m 6,4 km/h (2 Bft) 100,00 %
17.04.2020 18:00 22,1 C 23,3 C 19,4 C 48 % 1014,8 hPa 0,0 l/m 2 min 0 min 360 W/m 9,7 km/h (2 Bft) 100,00 %
17.04.2020 18:02 22,0 C 22,8 C 18,9 C 48 % 1014,8 hPa 0,0 l/m 2 min 0 min 355 W/m 9,7 km/h (2 Bft) 100,00 %
17.04.2020 18:04 21,9 C 22,8 C 18,9 C 48 % 1014,7 hPa 0,0 l/m 2 min 0 min 346 W/m 9,7 km/h (2 Bft) 97,87 %
17.04.2020 18:06 21,8 C 22,8 C 18,9 C 48 % 1014,7 hPa 0,0 l/m 2 min 0 min 340 W/m 9,7 km/h (2 Bft) 100,00 %
17.04.2020 18:08 21,8 C 23,3 C 18,9 C 49 % 1014,7 hPa 0,0 l/m 2 min 0 min 330 W/m 6,4 km/h (2 Bft) 97,83 %
17.04.2020 18:10 21,8 C 22,8 C 18,9 C 48 % 1014,7 hPa 0,0 l/m 2 min 0 min 321 W/m 16,1 km/h (3 Bft) 100,00 %
17.04.2020 18:12 21,7 C 22,8 C 18,9 C 48 % 1014,8 hPa 0,0 l/m 2 min 0 min 316 W/m 9,7 km/h (2 Bft) 100,00 %
17.04.2020 18:14 21,7 C 22,2 C 18,9 C 48 % 1014,8 hPa 0,0 l/m 2 min 0 min 310 W/m 12,9 km/h (3 Bft) 97,87 %
17.04.2020 18:16 21,6 C 22,2 C 18,3 C 48 % 1014,8 hPa 0,0 l/m 2 min 0 min 302 W/m 6,4 km/h (2 Bft) 100,00 %
17.04.2020 18:18 21,6 C 22,2 C 18,3 C 48 % 1014,8 hPa 0,0 l/m 2 min 0 min 294 W/m 3,2 km/h (1 Bft) 100,00 %
17.04.2020 18:20 21,6 C 22,2 C 18,3 C 49 % 1014,8 hPa 0,0 l/m 2 min 0 min 292 W/m 6,4 km/h (2 Bft) 100,00 %
17.04.2020 18:22 21,5 C 22,2 C 18,3 C 49 % 1014,8 hPa 0,0 l/m 2 min 0 min 288 W/m 9,7 km/h (2 Bft) 95,74 %
17.04.2020 18:24 21,4 C 22,2 C 18,3 C 48 % 1014,8 hPa 0,0 l/m 2 min 0 min 283 W/m 9,7 km/h (2 Bft) 100,00 %
17.04.2020 18:26 21,4 C 22,2 C 18,3 C 49 % 1014,8 hPa 0,0 l/m 2 min 0 min 276 W/m 9,7 km/h (2 Bft) 100,00 %
17.04.2020 18:28 21,4 C 21,7 C 18,3 C 48 % 1014,8 hPa 0,0 l/m 2 min 0 min 271 W/m 9,7 km/h (2 Bft) 100,00 %
17.04.2020 18:30 21,3 C 21,1 C 18,3 C 49 % 1014,8 hPa 0,0 l/m 2 min 0 min 264 W/m 9,7 km/h (2 Bft) 100,00 %
17.04.2020 18:32 21,2 C 20,6 C 18,3 C 49 % 1014,8 hPa 0,0 l/m 2 min 0 min 257 W/m 16,1 km/h (3 Bft) 100,00 %
17.04.2020 18:34 21,1 C 20,0 C 18,3 C 50 % 1014,8 hPa 0,0 l/m 2 min 0 min 246 W/m 9,7 km/h (2 Bft) 100,00 %
17.04.2020 18:36 21,1 C 19,4 C 18,3 C 50 % 1014,8 hPa 0,0 l/m 2 min 0 min 178 W/m 19,3 km/h (3 Bft) 100,00 %
17.04.2020 18:38 20,9 C 19,4 C 18,3 C 50 % 1014,8 hPa 0,0 l/m 0 min 0 min 89 W/m 6,4 km/h (2 Bft) 100,00 %
17.04.2020 18:40 20,9 C 19,4 C 18,3 C 50 % 1014,8 hPa 0,0 l/m 0 min 0 min 77 W/m 9,7 km/h (2 Bft) 100,00 %
17.04.2020 18:42 20,8 C 19,4 C 18,3 C 49 % 1014,8 hPa 0,0 l/m 0 min 0 min 76 W/m 16,1 km/h (3 Bft) 100,00 %
17.04.2020 18:44 20,7 C 19,4 C 17,8 C 49 % 1014,8 hPa 0,0 l/m 0 min 0 min 74 W/m 9,7 km/h (2 Bft) 100,00 %
17.04.2020 18:46 20,6 C 18,9 C 17,8 C 50 % 1014,8 hPa 0,0 l/m 0 min 0 min 72 W/m 6,4 km/h (2 Bft) 97,87 %
17.04.2020 18:48 20,6 C 18,9 C 17,8 C 50 % 1014,8 hPa 0,0 l/m 0 min 0 min 70 W/m 3,2 km/h (1 Bft) 100,00 %
17.04.2020 18:50 20,4 C 18,9 C 17,8 C 50 % 1014,8 hPa 0,0 l/m 0 min 0 min 69 W/m 3,2 km/h (1 Bft) 100,00 %
17.04.2020 18:52 20,4 C 18,9 C 17,8 C 50 % 1014,8 hPa 0,0 l/m 0 min 0 min 69 W/m 3,2 km/h (1 Bft) 100,00 %
17.04.2020 18:54 20,3 C 18,9 C 17,8 C 51 % 1014,9 hPa 0,0 l/m 0 min 0 min 69 W/m 9,7 km/h (2 Bft) 100,00 %
17.04.2020 18:56 20,3 C 18,9 C 17,8 C 50 % 1014,8 hPa 0,0 l/m 0 min 0 min 69 W/m 9,7 km/h (2 Bft) 100,00 %
17.04.2020 18:58 20,2 C 18,9 C 17,8 C 51 % 1014,9 hPa 0,0 l/m 0 min 0 min 67 W/m 6,4 km/h (2 Bft) 97,87 %
17.04.2020 19:00 20,1 C 18,9 C 17,8 C 51 % 1014,8 hPa 0,0 l/m 0 min 0 min 65 W/m 0,0 km/h (0 Bft) 97,87 %
17.04.2020 19:02 20,1 C 18,9 C 17,2 C 51 % 1014,8 hPa 0,0 l/m 0 min 0 min 59 W/m 6,4 km/h (2 Bft) 97,87 %
17.04.2020 19:04 20,0 C 18,9 C 17,2 C 51 % 1014,8 hPa 0,0 l/m 0 min 0 min 59 W/m 6,4 km/h (2 Bft) 97,87 %
17.04.2020 19:06 19,9 C 18,3 C 17,2 C 51 % 1014,8 hPa 0,0 l/m 0 min 0 min 60 W/m 6,4 km/h (2 Bft) 97,87 %
17.04.2020 19:08 19,9 C 18,3 C 17,2 C 51 % 1014,8 hPa 0,0 l/m 0 min 0 min 60 W/m 6,4 km/h (2 Bft) 95,65 %
17.04.2020 19:10 19,8 C 18,3 C 17,2 C 52 % 1014,8 hPa 0,0 l/m 0 min 0 min 60 W/m 3,2 km/h (1 Bft) 97,87 %
17.04.2020 19:12 19,8 C 18,3 C 17,2 C 52 % 1014,8 hPa 0,0 l/m 0 min 0 min 60 W/m 3,2 km/h (1 Bft) 97,87 %
17.04.2020 19:14 19,7 C 18,3 C 17,2 C 52 % 1014,8 hPa 0,0 l/m 0 min 0 min 60 W/m 3,2 km/h (1 Bft) 97,87 %
17.04.2020 19:16 19,6 C 18,3 C 17,2 C 52 % 1014,8 hPa 0,0 l/m 0 min 0 min 60 W/m 3,2 km/h (1 Bft) 97,87 %
17.04.2020 19:18 19,6 C 18,3 C 17,2 C 51 % 1014,7 hPa 0,0 l/m 0 min 0 min 58 W/m 9,7 km/h (2 Bft) 97,83 %
17.04.2020 19:20 19,5 C 18,3 C 17,2 C 52 % 1014,7 hPa 0,0 l/m 0 min 0 min 57 W/m 3,2 km/h (1 Bft) 97,87 %
17.04.2020 19:22 19,4 C 18,3 C 16,7 C 52 % 1014,7 hPa 0,0 l/m 0 min 0 min 56 W/m 3,2 km/h (1 Bft) 97,87 %
17.04.2020 19:24 19,4 C 18,3 C 16,7 C 53 % 1014,7 hPa 0,0 l/m 0 min 0 min 55 W/m 3,2 km/h (1 Bft) 97,87 %
17.04.2020 19:26 19,3 C 17,8 C 16,7 C 52 % 1014,7 hPa 0,0 l/m 0 min 0 min 54 W/m 0,0 km/h (0 Bft) 95,74 %
17.04.2020 19:28 19,3 C 17,8 C 16,7 C 52 % 1014,7 hPa 0,0 l/m 0 min 0 min 53 W/m 6,4 km/h (2 Bft) 95,74 %
17.04.2020 19:30 19,3 C 17,8 C 16,7 C 52 % 1014,7 hPa 0,0 l/m 0 min 0 min 51 W/m 3,2 km/h (1 Bft) 97,83 %
17.04.2020 19:32 19,2 C 17,8 C 16,7 C 52 % 1014,7 hPa 0,0 l/m 0 min 0 min 49 W/m 6,4 km/h (2 Bft) 97,87 %
17.04.2020 19:34 19,2 C 17,8 C 16,7 C 52 % 1014,7 hPa 0,0 l/m 0 min 0 min 47 W/m 6,4 km/h (2 Bft) 95,74 %
17.04.2020 19:36 19,1 C 17,8 C 16,7 C 52 % 1014,7 hPa 0,0 l/m 0 min 0 min 46 W/m 6,4 km/h (2 Bft) 95,74 %
17.04.2020 19:38 19,1 C 17,8 C 16,7 C 52 % 1014,7 hPa 0,0 l/m 0 min 0 min 43 W/m 3,2 km/h (1 Bft) 97,87 %
17.04.2020 19:40 19,0 C 17,8 C 16,7 C 53 % 1014,7 hPa 0,0 l/m 0 min 0 min 41 W/m 6,4 km/h (2 Bft) 97,87 %
17.04.2020 19:42 18,9 C 17,8 C 16,7 C 53 % 1014,7 hPa 0,0 l/m 0 min 0 min 40 W/m 6,4 km/h (2 Bft) 97,83 %
17.04.2020 19:44 18,9 C 17,2 C 16,7 C 53 % 1014,7 hPa 0,0 l/m 0 min 0 min 38 W/m 9,7 km/h (2 Bft) 93,62 %
17.04.2020 19:46 18,9 C 17,2 C 16,7 C 53 % 1014,7 hPa 0,0 l/m 0 min 0 min 37 W/m 6,4 km/h (2 Bft) 95,74 %
17.04.2020 19:48 18,8 C 17,2 C 16,1 C 53 % 1014,7 hPa 0,0 l/m 0 min 0 min 35 W/m 9,7 km/h (2 Bft) 97,87 %
17.04.2020 19:50 18,8 C 17,2 C 16,1 C 52 % 1014,7 hPa 0,0 l/m 0 min 0 min 34 W/m 6,4 km/h (2 Bft) 95,74 %
17.04.2020 19:52 18,7 C 17,2 C 16,1 C 53 % 1014,6 hPa 0,0 l/m 0 min 0 min 33 W/m 3,2 km/h (1 Bft) 93,62 %
17.04.2020 19:54 18,7 C 17,2 C 16,1 C 53 % 1014,7 hPa 0,0 l/m 0 min 0 min 31 W/m 3,2 km/h (1 Bft) 97,83 %
17.04.2020 19:56 18,6 C 16,7 C 16,1 C 53 % 1014,7 hPa 0,0 l/m 0 min 0 min 28 W/m 3,2 km/h (1 Bft) 97,87 %
17.04.2020 19:58 18,6 C 16,7 C 15,6 C 53 % 1014,7 hPa 0,0 l/m 0 min 0 min 26 W/m 3,2 km/h (1 Bft) 97,87 %
17.04.2020 20:00 18,6 C 16,7 C 15,6 C 53 % 1014,7 hPa 0,0 l/m 0 min 0 min 25 W/m 9,7 km/h (2 Bft) 95,74 %
17.04.2020 20:02 18,5 C 16,7 C 15,6 C 53 % 1014,7 hPa 0,0 l/m 0 min 0 min 21 W/m 3,2 km/h (1 Bft) 97,87 %
17.04.2020 20:04 18,4 C 16,7 C 15,6 C 53 % 1014,7 hPa 0,0 l/m 0 min 0 min 19 W/m 9,7 km/h (2 Bft) 97,87 %
17.04.2020 20:06 18,4 C 16,7 C 15,6 C 53 % 1014,8 hPa 0,0 l/m 0 min 0 min 18 W/m 0,0 km/h (0 Bft) 97,83 %
17.04.2020 20:08 18,3 C 16,7 C 15,6 C 53 % 1014,8 hPa 0,0 l/m 0 min 0 min 16 W/m 3,2 km/h (1 Bft) 97,87 %
17.04.2020 20:10 18,2 C 16,7 C 15,6 C 54 % 1014,8 hPa 0,0 l/m 0 min 0 min 16 W/m 3,2 km/h (1 Bft) 97,87 %
17.04.2020 20:12 18,2 C 16,1 C 15,6 C 54 % 1014,8 hPa 0,0 l/m 0 min 0 min 18 W/m 0,0 km/h (0 Bft) 93,62 %
17.04.2020 20:14 18,1 C 16,1 C 15,6 C 54 % 1014,8 hPa 0,0 l/m 0 min 0 min 16 W/m 3,2 km/h (1 Bft) 97,87 %
17.04.2020 20:16 18,1 C 16,1 C 15,0 C 54 % 1014,8 hPa 0,0 l/m 0 min 0 min 15 W/m 0,0 km/h (0 Bft) 95,65 %
17.04.2020 20:18 18,1 C 16,1 C 15,0 C 54 % 1014,8 hPa 0,0 l/m 0 min 0 min 14 W/m 0,0 km/h (0 Bft) 97,87 %
17.04.2020 20:20 17,9 C 16,1 C 15,0 C 54 % 1014,8 hPa 0,0 l/m 0 min 0 min 12 W/m 3,2 km/h (1 Bft) 95,74 %
17.04.2020 20:22 17,9 C 16,1 C 15,0 C 54 % 1014,8 hPa 0,0 l/m 0 min 0 min 11 W/m 0,0 km/h (0 Bft) 95,74 %
17.04.2020 20:24 17,8 C 16,1 C 15,0 C 54 % 1014,8 hPa 0,0 l/m 0 min 0 min 11 W/m 0,0 km/h (0 Bft) 95,74 %
17.04.2020 20:26 17,8 C 15,6 C 15,0 C 54 % 1014,7 hPa 0,0 l/m 0 min 0 min 9 W/m 0,0 km/h (0 Bft) 97,87 %
17.04.2020 20:28 17,7 C 15,6 C 14,4 C 54 % 1014,8 hPa 0,0 l/m 0 min 0 min 8 W/m 0,0 km/h (0 Bft) 97,83 %
17.04.2020 20:30 17,7 C 15,6 C 14,4 C 54 % 1014,7 hPa 0,0 l/m 0 min 0 min 6 W/m 0,0 km/h (0 Bft) 97,87 %
17.04.2020 20:32 17,6 C 15,6 C 14,4 C 55 % 1014,8 hPa 0,0 l/m 0 min 0 min 5 W/m 3,2 km/h (1 Bft) 95,74 %
17.04.2020 20:34 17,6 C 15,6 C 14,4 C 55 % 1014,7 hPa 0,0 l/m 0 min 0 min 4 W/m 3,2 km/h (1 Bft) 97,87 %
17.04.2020 20:36 17,5 C 15,6 C 14,4 C 55 % 1014,8 hPa 0,0 l/m 0 min 0 min 0 W/m 0,0 km/h (0 Bft) 97,87 %
17.04.2020 20:38 17,4 C 15,0 C 14,4 C 55 % 1014,7 hPa 0,0 l/m 0 min 0 min 0 W/m 0,0 km/h (0 Bft) 97,83 %
17.04.2020 20:40 17,4 C 15,0 C 14,4 C 55 % 1014,7 hPa 0,0 l/m 0 min 0 min 0 W/m 6,4 km/h (2 Bft) 97,83 %
17.04.2020 20:42 17,3 C 15,0 C 14,4 C 55 % 1014,7 hPa 0,0 l/m 0 min 0 min 0 W/m 0,0 km/h (0 Bft) 95,74 %
17.04.2020 20:44 17,3 C 15,0 C 14,4 C 55 % 1014,7 hPa 0,0 l/m 0 min 0 min 0 W/m 0,0 km/h (0 Bft) 97,87 %
17.04.2020 20:46 17,2 C 15,0 C 14,4 C 56 % 1014,7 hPa 0,0 l/m 0 min 0 min 0 W/m 3,2 km/h (1 Bft) 95,74 %
17.04.2020 20:48 17,1 C 15,0 C 13,9 C 56 % 1014,8 hPa 0,0 l/m 0 min 0 min 0 W/m 3,2 km/h (1 Bft) 97,87 %
17.04.2020 20:50 17,1 C 15,0 C 13,9 C 56 % 1014,9 hPa 0,0 l/m 0 min 0 min 0 W/m 3,2 km/h (1 Bft) 93,62 %
17.04.2020 20:52 17,0 C 15,0 C 13,9 C 56 % 1014,9 hPa 0,0 l/m 0 min 0 min 0 W/m 6,4 km/h (2 Bft) 97,83 %
17.04.2020 20:54 16,9 C 15,0 C 13,9 C 56 % 1014,9 hPa 0,0 l/m 0 min 0 min 0 W/m 6,4 km/h (2 Bft) 97,87 %
17.04.2020 20:56 16,8 C 14,4 C 13,9 C 57 % 1014,9 hPa 0,0 l/m 0 min 0 min 0 W/m 3,2 km/h (1 Bft) 97,87 %
17.04.2020 20:58 16,7 C 15,0 C 13,9 C 56 % 1014,9 hPa 0,0 l/m 0 min 0 min 0 W/m 3,2 km/h (1 Bft) 97,87 %
17.04.2020 21:00 16,7 C 14,4 C 13,9 C 57 % 1014,9 hPa 0,0 l/m 0 min 0 min 0 W/m 6,4 km/h (2 Bft) 97,87 %
17.04.2020 21:02 16,6 C 14,4 C 13,9 C 57 % 1014,9 hPa 0,0 l/m 0 min 0 min 0 W/m 0,0 km/h (0 Bft) 97,87 %
17.04.2020 21:04 16,6 C 14,4 C 13,9 C 57 % 1014,9 hPa 0,0 l/m 0 min 0 min 0 W/m 3,2 km/h (1 Bft) 97,87 %
17.04.2020 21:06 16,5 C 14,4 C 13,9 C 57 % 1015,0 hPa 0,0 l/m 0 min 0 min 0 W/m 6,4 km/h (2 Bft) 97,87 %
17.04.2020 21:08 16,4 C 14,4 C 13,9 C 57 % 1015,0 hPa 0,0 l/m 0 min 0 min 0 W/m 3,2 km/h (1 Bft) 97,87 %
17.04.2020 21:10 16,4 C 14,4 C 13,3 C 57 % 1015,0 hPa 0,0 l/m 0 min 0 min 0 W/m 3,2 km/h (1 Bft) 97,83 %
17.04.2020 21:12 16,3 C 14,4 C 13,3 C 57 % 1015,0 hPa 0,0 l/m 0 min 0 min 0 W/m 3,2 km/h (1 Bft) 97,87 %
17.04.2020 21:14 16,3 C 14,4 C 13,3 C 57 % 1015,1 hPa 0,0 l/m 0 min 0 min 0 W/m 3,2 km/h (1 Bft) 97,87 %
17.04.2020 21:16 16,3 C 14,4 C 13,3 C 58 % 1015,1 hPa 0,0 l/m 0 min 0 min 0 W/m 0,0 km/h (0 Bft) 97,87 %
17.04.2020 21:18 16,2 C 14,4 C 13,3 C 58 % 1015,1 hPa 0,0 l/m 0 min 0 min 0 W/m 6,4 km/h (2 Bft) 97,87 %
17.04.2020 21:20 16,2 C 14,4 C 13,3 C 58 % 1015,1 hPa 0,0 l/m 0 min 0 min 0 W/m 6,4 km/h (2 Bft) 97,87 %
17.04.2020 21:22 16,1 C 14,4 C 13,3 C 58 % 1015,1 hPa 0,0 l/m 0 min 0 min 0 W/m 3,2 km/h (1 Bft) 97,83 %
17.04.2020 21:24 16,1 C 14,4 C 13,3 C 58 % 1015,1 hPa 0,0 l/m 0 min 0 min 0 W/m 3,2 km/h (1 Bft) 97,87 %
17.04.2020 21:26 16,0 C 14,4 C 13,3 C 58 % 1015,1 hPa 0,0 l/m 0 min 0 min 0 W/m 0,0 km/h (0 Bft) 100,00 %
17.04.2020 21:28 15,9 C 14,4 C 13,3 C 58 % 1015,1 hPa 0,0 l/m 0 min 0 min 0 W/m 3,2 km/h (1 Bft) 100,00 %
17.04.2020 21:30 15,9 C 14,4 C 13,3 C 58 % 1015,1 hPa 0,0 l/m 0 min 0 min 0 W/m 6,4 km/h (2 Bft) 97,87 %
17.04.2020 21:32 15,8 C 13,9 C 13,3 C 58 % 1015,1 hPa 0,0 l/m 0 min 0 min 0 W/m 3,2 km/h (1 Bft) 100,00 %
17.04.2020 21:34 15,8 C 13,9 C 12,8 C 58 % 1015,2 hPa 0,0 l/m 0 min 0 min 0 W/m 0,0 km/h (0 Bft) 97,83 %
17.04.2020 21:36 15,8 C 13,9 C 12,8 C 58 % 1015,1 hPa 0,0 l/m 0 min 0 min 0 W/m 6,4 km/h (2 Bft) 100,00 %
17.04.2020 21:38 15,7 C 13,9 C 12,8 C 59 % 1015,1 hPa 0,0 l/m 0 min 0 min 0 W/m 0,0 km/h (0 Bft) 100,00 %
17.04.2020 21:40 15,7 C 13,9 C 12,8 C 59 % 1015,1 hPa 0,0 l/m 0 min 0 min 0 W/m 6,4 km/h (2 Bft) 100,00 %
17.04.2020 21:42 15,6 C 13,9 C 12,8 C 59 % 1015,1 hPa 0,0 l/m 0 min 0 min 0 W/m 3,2 km/h (1 Bft) 100,00 %
17.04.2020 21:44 15,6 C 13,9 C 12,8 C 58 % 1015,2 hPa 0,0 l/m 0 min 0 min 0 W/m 0,0 km/h (0 Bft) 97,87 %
17.04.2020 21:46 15,6 C 13,9 C 12,8 C 59 % 1015,2 hPa 0,0 l/m 0 min 0 min 0 W/m 0,0 km/h (0 Bft) 97,83 %
17.04.2020 21:48 15,5 C 13,9 C 12,8 C 59 % 1015,2 hPa 0,0 l/m 0 min 0 min 0 W/m 0,0 km/h (0 Bft) 100,00 %
17.04.2020 21:50 15,5 C 13,9 C 12,8 C 59 % 1015,2 hPa 0,0 l/m 0 min 0 min 0 W/m 0,0 km/h (0 Bft) 100,00 %
17.04.2020 21:52 15,4 C 13,9 C 12,8 C 59 % 1015,2 hPa 0,0 l/m 0 min 0 min 0 W/m 3,2 km/h (1 Bft) 97,87 %
17.04.2020 21:54 15,4 C 13,9 C 12,8 C 59 % 1015,3 hPa 0,0 l/m 0 min 0 min 0 W/m 3,2 km/h (1 Bft) 97,87 %
17.04.2020 21:56 15,3 C 13,9 C 12,8 C 59 % 1015,3 hPa 0,0 l/m 0 min 0 min 0 W/m 0,0 km/h (0 Bft) 97,83 %
17.04.2020 21:58 15,3 C 13,9 C 12,8 C 59 % 1015,3 hPa 0,0 l/m 0 min 0 min 0 W/m 0,0 km/h (0 Bft) 100,00 %
17.04.2020 22:00 15,3 C 13,9 C 12,8 C 59 % 1015,3 hPa 0,0 l/m 0 min 0 min 0 W/m 3,2 km/h (1 Bft) 93,62 %
17.04.2020 22:02 15,2 C 13,3 C 12,8 C 60 % 1015,4 hPa 0,0 l/m 0 min 0 min 0 W/m 0,0 km/h (0 Bft) 93,62 %
17.04.2020 22:04 15,2 C 13,3 C 12,2 C 60 % 1015,3 hPa 0,0 l/m 0 min 0 min 0 W/m 6,4 km/h (2 Bft) 97,87 %
17.04.2020 22:06 15,2 C 13,3 C 12,2 C 60 % 1015,3 hPa 0,0 l/m 0 min 0 min 0 W/m 3,2 km/h (1 Bft) 95,74 %
17.04.2020 22:08 15,1 C 13,3 C 12,2 C 60 % 1015,4 hPa 0,0 l/m 0 min 0 min 0 W/m 6,4 km/h (2 Bft) 95,65 %
17.04.2020 22:10 15,1 C 13,3 C 12,8 C 60 % 1015,4 hPa 0,0 l/m 0 min 0 min 0 W/m 6,4 km/h (2 Bft) 95,74 %
17.04.2020 22:12 15,1 C 13,3 C 12,2 C 60 % 1015,4 hPa 0,0 l/m 0 min 0 min 0 W/m 0,0 km/h (0 Bft) 95,74 %
17.04.2020 22:14 15,0 C 13,3 C 12,8 C 60 % 1015,4 hPa 0,0 l/m 0 min 0 min 0 W/m 6,4 km/h (2 Bft) 95,74 %
17.04.2020 22:16 15,0 C 13,3 C 12,8 C 60 % 1015,4 hPa 0,0 l/m 0 min 0 min 0 W/m 6,4 km/h (2 Bft) 95,74 %
17.04.2020 22:18 14,9 C 13,3 C 12,8 C 61 % 1015,4 hPa 0,0 l/m 0 min 0 min 0 W/m 3,2 km/h (1 Bft) 95,74 %
17.04.2020 22:20 14,9 C 13,3 C 12,8 C 61 % 1015,4 hPa 0,0 l/m 0 min 0 min 0 W/m 0,0 km/h (0 Bft) 93,48 %
17.04.2020 22:22 14,8 C 13,9 C 12,8 C 60 % 1015,4 hPa 0,0 l/m 0 min 0 min 0 W/m 9,7 km/h (2 Bft) 95,74 %
17.04.2020 22:24 14,8 C 13,3 C 12,8 C 61 % 1015,3 hPa 0,0 l/m 0 min 0 min 0 W/m 3,2 km/h (1 Bft) 95,74 %
17.04.2020 22:26 14,8 C 13,3 C 12,8 C 60 % 1015,4 hPa 0,0 l/m 0 min 0 min 0 W/m 9,7 km/h (2 Bft) 95,74 %
17.04.2020 22:28 14,8 C 13,3 C 12,2 C 61 % 1015,4 hPa 0,0 l/m 0 min 0 min 0 W/m 6,4 km/h (2 Bft) 95,74 %
17.04.2020 22:30 14,7 C 13,3 C 12,2 C 61 % 1015,4 hPa 0,0 l/m 0 min 0 min 0 W/m 6,4 km/h (2 Bft) 95,74 %
17.04.2020 22:32 14,7 C 13,3 C 12,8 C 61 % 1015,3 hPa 0,0 l/m 0 min 0 min 0 W/m 6,4 km/h (2 Bft) 91,30 %
17.04.2020 22:34 14,7 C 13,3 C 12,8 C 61 % 1015,3 hPa 0,0 l/m 0 min 0 min 0 W/m 3,2 km/h (1 Bft) 95,74 %
17.04.2020 22:36 14,7 C 13,3 C 12,8 C 61 % 1015,3 hPa 0,0 l/m 0 min 0 min 0 W/m 3,2 km/h (1 Bft) 97,87 %
17.04.2020 22:38 14,6 C 13,3 C 12,8 C 61 % 1015,3 hPa 0,0 l/m 0 min 0 min 0 W/m 3,2 km/h (1 Bft) 95,74 %
17.04.2020 22:40 14,6 C 13,3 C 12,8 C 61 % 1015,3 hPa 0,0 l/m 0 min 0 min 0 W/m 0,0 km/h (0 Bft) 97,87 %
17.04.2020 22:42 14,6 C 13,3 C 12,2 C 61 % 1015,3 hPa 0,0 l/m 0 min 0 min 0 W/m 0,0 km/h (0 Bft) 97,44 %
17.04.2020 22:44 14,6 C 13,3 C 12,2 C 61 % 1015,3 hPa 0,0 l/m 0 min 0 min 0 W/m 0,0 km/h (0 Bft) 97,87 %
17.04.2020 22:46 14,6 C 13,3 C 12,2 C 61 % 1015,3 hPa 0,0 l/m 0 min 0 min 0 W/m 3,2 km/h (1 Bft) 97,87 %
17.04.2020 22:48 14,6 C 13,3 C 12,2 C 61 % 1015,3 hPa 0,0 l/m 0 min 0 min 0 W/m 0,0 km/h (0 Bft) 100,00 %
17.04.2020 22:50 14,5 C 13,3 C 12,2 C 61 % 1015,4 hPa 0,0 l/m 0 min 0 min 0 W/m 0,0 km/h (0 Bft) 95,65 %
17.04.2020 22:52 14,5 C 13,3 C 12,2 C 61 % 1015,3 hPa 0,0 l/m 0 min 0 min 0 W/m 0,0 km/h (0 Bft) 97,87 %
17.04.2020 22:54 14,4 C 12,8 C 12,2 C 61 % 1015,3 hPa 0,0 l/m 0 min 0 min 0 W/m 3,2 km/h (1 Bft) 100,00 %
17.04.2020 22:56 14,4 C 12,8 C 12,2 C 61 % 1015,3 hPa 0,0 l/m 0 min 0 min 0 W/m 3,2 km/h (1 Bft) 97,87 %
17.04.2020 22:58 14,4 C 12,8 C 12,2 C 61 % 1015,3 hPa 0,0 l/m 0 min 0 min 0 W/m 3,2 km/h (1 Bft) 97,87 %
17.04.2020 23:00 14,3 C 12,8 C 12,2 C 61 % 1015,3 hPa 0,0 l/m 0 min 0 min 0 W/m 3,2 km/h (1 Bft) 100,00 %
17.04.2020 23:02 14,3 C 12,8 C 12,2 C 61 % 1015,3 hPa 0,0 l/m 0 min 0 min 0 W/m 9,7 km/h (2 Bft) 100,00 %
17.04.2020 23:04 14,3 C 12,8 C 11,7 C 61 % 1015,2 hPa 0,0 l/m 0 min 0 min 0 W/m 0,0 km/h (0 Bft) 100,00 %
17.04.2020 23:06 14,3 C 12,8 C 11,7 C 61 % 1015,2 hPa 0,0 l/m 0 min 0 min 0 W/m 3,2 km/h (1 Bft) 100,00 %
17.04.2020 23:08 14,3 C 12,8 C 11,7 C 61 % 1015,2 hPa 0,0 l/m 0 min 0 min 0 W/m 0,0 km/h (0 Bft) 100,00 %
17.04.2020 23:10 14,3 C 12,2 C 11,7 C 61 % 1015,2 hPa 0,0 l/m 0 min 0 min 0 W/m 0,0 km/h (0 Bft) 97,87 %
17.04.2020 23:12 14,3 C 12,2 C 11,7 C 62 % 1015,1 hPa 0,0 l/m 0 min 0 min 0 W/m 0,0 km/h (0 Bft) 97,83 %
17.04.2020 23:14 14,3 C 12,8 C 11,7 C 61 % 1015,2 hPa 0,0 l/m 0 min 0 min 0 W/m 3,2 km/h (1 Bft) 97,87 %
17.04.2020 23:16 14,3 C 12,8 C 11,7 C 61 % 1015,2 hPa 0,0 l/m 0 min 0 min 0 W/m 0,0 km/h (0 Bft) 97,87 %
17.04.2020 23:18 14,2 C 12,8 C 11,7 C 61 % 1015,2 hPa 0,0 l/m 0 min 0 min 0 W/m 0,0 km/h (0 Bft) 100,00 %
17.04.2020 23:20 14,1 C 12,2 C 11,7 C 62 % 1015,2 hPa 0,0 l/m 0 min 0 min 0 W/m 0,0 km/h (0 Bft) 100,00 %
17.04.2020 23:22 14,1 C 12,2 C 11,7 C 62 % 1015,2 hPa 0,0 l/m 0 min 0 min 0 W/m 3,2 km/h (1 Bft) 100,00 %
17.04.2020 23:24 14,1 C 12,2 C 11,7 C 62 % 1015,1 hPa 0,0 l/m 0 min 0 min 0 W/m 3,2 km/h (1 Bft) 97,83 %
17.04.2020 23:26 14,0 C 12,2 C 11,7 C 62 % 1015,2 hPa 0,0 l/m 0 min 0 min 0 W/m 3,2 km/h (1 Bft) 97,87 %
17.04.2020 23:28 13,9 C 12,2 C 11,7 C 62 % 1015,2 hPa 0,0 l/m 0 min 0 min 0 W/m 3,2 km/h (1 Bft) 100,00 %
17.04.2020 23:30 13,9 C 12,2 C 11,7 C 62 % 1015,2 hPa 0,0 l/m 0 min 0 min 0 W/m 0,0 km/h (0 Bft) 100,00 %
17.04.2020 23:32 13,9 C 12,2 C 11,7 C 62 % 1015,2 hPa 0,0 l/m 0 min 0 min 0 W/m 0,0 km/h (0 Bft) 100,00 %
17.04.2020 23:34 13,8 C 12,2 C 11,1 C 62 % 1015,3 hPa 0,0 l/m 0 min 0 min 0 W/m 0,0 km/h (0 Bft) 100,00 %
17.04.2020 23:36 13,8 C 12,2 C 11,1 C 62 % 1015,3 hPa 0,0 l/m 0 min 0 min 0 W/m 3,2 km/h (1 Bft) 97,83 %
17.04.2020 23:38 13,8 C 12,2 C 11,1 C 62 % 1015,3 hPa 0,0 l/m 0 min 0 min 0 W/m 0,0 km/h (0 Bft) 100,00 %
17.04.2020 23:40 13,8 C 12,2 C 11,1 C 62 % 1015,3 hPa 0,0 l/m 0 min 0 min 0 W/m 3,2 km/h (1 Bft) 100,00 %
17.04.2020 23:42 13,7 C 12,2 C 11,1 C 62 % 1015,3 hPa 0,0 l/m 0 min 0 min 0 W/m 0,0 km/h (0 Bft) 100,00 %
17.04.2020 23:44 13,7 C 12,2 C 11,1 C 62 % 1015,2 hPa 0,0 l/m 0 min 0 min 0 W/m 0,0 km/h (0 Bft) 100,00 %
17.04.2020 23:46 13,7 C 12,2 C 11,1 C 63 % 1015,3 hPa 0,0 l/m 0 min 0 min 0 W/m 6,4 km/h (2 Bft) 100,00 %
17.04.2020 23:48 13,6 C 12,2 C 11,1 C 63 % 1015,3 hPa 0,0 l/m 0 min 0 min 0 W/m 9,7 km/h (2 Bft) 100,00 %
17.04.2020 23:50 13,6 C 12,2 C 11,1 C 63 % 1015,2 hPa 0,0 l/m 0 min 0 min 0 W/m 3,2 km/h (1 Bft) 100,00 %
17.04.2020 23:52 13,6 C 12,2 C 11,1 C 63 % 1015,2 hPa 0,0 l/m 0 min 0 min 0 W/m 0,0 km/h (0 Bft) 100,00 %
17.04.2020 23:54 13,5 C 12,2 C 11,1 C 63 % 1015,2 hPa 0,0 l/m 0 min 0 min 0 W/m 3,2 km/h (1 Bft) 97,87 %
17.04.2020 23:56 13,4 C 12,2 C 11,1 C 63 % 1015,2 hPa 0,0 l/m 0 min 0 min 0 W/m 0,0 km/h (0 Bft) 100,00 %
17.04.2020 23:58 13,4 C 12,2 C 11,1 C 63 % 1015,2 hPa 0,0 l/m 0 min 0 min 0 W/m 3,2 km/h (1 Bft) 100,00 %
_ Min-Zeit 07:00 06:32 05:52 16:32 19:52 - - - - 00:08 06:36
Minimum _ 7,8 C 6,7 C 6,7 C 47 % 1014,6 hPa - - - - 0,0 km/h (0 Bft) 47,06 %
_ Max-Zeit 16:30 14:08 14:08 06:46 09:06 00:00 06:58 00:00 13:48 15:30 00:00
Maximum _ 22,5 C 27,8 C 30,0 C 84 % 1017,9 hPa 0,0 l/m 2 min 0 min 807 W/m 25,7 km/h
S-SO (4 Bft)
100,00 %
Durchschnitt _ 15,3 C 16,2 C 14,6 C 65 % 1016,3 hPa #0,0 l/m #9:52 h #0 min. 431 W/m 6,4 km/h (2 Bft) 97,52 %
© 2020 W. Hausmann